Wetterdaten: aktuell Sonntag, 21.04.2019 12:39
Datum Zeit Temp. A. Feuchte A. Luftdruck Regen Wind Richtung Richtung Sonnenschein UV Solar Taupunkt Windchill Windben Empfang
21.04.2019 12:39 18,2 C 40 % 1022,1 hPa 0,0 l/m 9,1 kts (3 Bft) N-NO 15 1 min 4,3 UV-I 756 W/m 4,4 C 14,6 C 10,4 kts (3 Bft) 95,65 %
21.04.2019 12:38 18,1 C 39 % 1022,0 hPa 0,0 l/m 8,9 kts (3 Bft) N 10 1 min 4,3 UV-I 756 W/m 3,9 C 14,6 C 10,4 kts (3 Bft) 100,00 %
21.04.2019 12:37 17,9 C 42 % 1022,0 hPa 0,0 l/m 9,0 kts (3 Bft) N 5 1 min 4,3 UV-I 754 W/m 4,8 C 14,3 C 11,3 kts (4 Bft) 95,65 %
21.04.2019 12:36 17,7 C 47 % 1022,0 hPa 0,0 l/m 8,2 kts (3 Bft) N-NO 28 1 min 4,3 UV-I 756 W/m 6,2 C 14,4 C 10,4 kts (3 Bft) 100,00 %
21.04.2019 12:35 17,3 C 44 % 1022,0 hPa 0,0 l/m 7,4 kts (3 Bft) N-NO 19 1 min 4,3 UV-I 758 W/m 4,9 C 14,4 C 8,7 kts (3 Bft) 91,30 %
21.04.2019 12:34 17,3 C 43 % 1022,0 hPa 0,0 l/m 4,3 kts (2 Bft) N 360 1 min 4,3 UV-I 758 W/m 4,6 C 16,5 C 6,1 kts (2 Bft) 100,00 %
21.04.2019 12:33 17,3 C 45 % 1022,1 hPa 0,0 l/m 2,3 kts (1 Bft) NO 49 1 min 4,3 UV-I 758 W/m 5,3 C 17,3 C 3,5 kts (2 Bft) 95,65 %
21.04.2019 12:32 17,5 C 40 % 1022,6 hPa 0,0 l/m 0,6 kts (1 Bft) O-NO 64 1 min 4,3 UV-I 758 W/m 3,8 C 17,5 C 2,6 kts (1 Bft) 96,15 %
21.04.2019 12:31 17,8 C 40 % 1022,1 hPa 0,0 l/m 2,5 kts (1 Bft) NO 42 1 min 4,3 UV-I 756 W/m 4,0 C 17,8 C 5,2 kts (2 Bft) 100,00 %
21.04.2019 12:30 17,8 C 44 % 1022,1 hPa 0,0 l/m 4,9 kts (2 Bft) N-NO 26 1 min 4,3 UV-I 756 W/m 5,4 C 16,6 C 7,0 kts (3 Bft) 95,65 %
21.04.2019 12:29 17,7 C 41 % 1022,2 hPa 0,0 l/m 6,2 kts (2 Bft) N-NO 28 1 min 4,2 UV-I 754 W/m 4,3 C 15,6 C 7,0 kts (3 Bft) 100,00 %
21.04.2019 12:28 17,7 C 41 % 1022,2 hPa 0,0 l/m 5,3 kts (2 Bft) NW 326 1 min 4,2 UV-I 754 W/m 4,3 C 16,2 C 7,0 kts (3 Bft) 96,15 %
21.04.2019 12:27 17,6 C 43 % 1022,2 hPa 0,0 l/m 6,8 kts (3 Bft) N 11 1 min 4,2 UV-I 752 W/m 4,9 C 15,1 C 8,7 kts (3 Bft) 100,00 %
21.04.2019 12:26 17,4 C 44 % 1022,3 hPa 0,0 l/m 4,1 kts (2 Bft) N 9 1 min 4,2 UV-I 751 W/m 5,0 C 16,8 C 7,0 kts (3 Bft) 96,15 %
21.04.2019 12:25 17,4 C 46 % 1022,2 hPa 0,0 l/m 5,0 kts (2 Bft) N-NO 13 1 min 4,2 UV-I 749 W/m 5,7 C 16,1 C 7,8 kts (3 Bft) 100,00 %
21.04.2019 12:24 17,4 C 45 % 1022,3 hPa 0,0 l/m 4,6 kts (2 Bft) NO 43 1 min 4,2 UV-I 747 W/m 5,3 C 16,4 C 6,1 kts (2 Bft) 100,00 %
21.04.2019 12:23 17,3 C 52 % 1022,2 hPa 0,0 l/m 3,4 kts (2 Bft) NO 40 1 min 4,2 UV-I 751 W/m 7,3 C 17,3 C 5,2 kts (2 Bft) 95,65 %
21.04.2019 12:22 17,1 C 52 % 1022,3 hPa 0,0 l/m 2,2 kts (1 Bft) NO 51 1 min 4,2 UV-I 751 W/m 7,2 C 17,1 C 3,5 kts (2 Bft) 100,00 %
21.04.2019 12:21 17,3 C 45 % 1022,3 hPa 0,0 l/m 2,9 kts (1 Bft) O-NO 63 1 min 4,2 UV-I 749 W/m 5,3 C 17,3 C 3,5 kts (2 Bft) 100,00 %
21.04.2019 12:20 17,7 C 44 % 1022,3 hPa 0,0 l/m 3,8 kts (2 Bft) N-NO 30 1 min 4,2 UV-I 747 W/m 5,3 C 17,4 C 5,2 kts (2 Bft) 100,00 %
21.04.2019 12:19 17,7 C 43 % 1022,3 hPa 0,0 l/m 4,8 kts (2 Bft) NO 49 1 min 4,2 UV-I 749 W/m 5,0 C 16,6 C 6,1 kts (2 Bft) 100,00 %
21.04.2019 12:18 17,4 C 47 % 1022,3 hPa 0,0 l/m 7,8 kts (3 Bft) NO 45 1 min 4,2 UV-I 749 W/m 6,0 C 14,3 C 10,4 kts (3 Bft) 96,15 %
21.04.2019 12:17 17,3 C 49 % 1022,2 hPa 0,0 l/m 6,5 kts (2 Bft) N-NO 33 1 min 4,2 UV-I 751 W/m 6,5 C 14,9 C 9,6 kts (3 Bft) 100,00 %
21.04.2019 12:16 16,7 C 48 % 1022,3 hPa 0,0 l/m 3,7 kts (2 Bft) NO 38 1 min 4,2 UV-I 745 W/m 5,6 C 16,5 C 4,3 kts (2 Bft) 95,65 %
21.04.2019 12:15 16,6 C 44 % 1022,3 hPa 0,0 l/m 3,7 kts (2 Bft) NO 41 1 min 4,2 UV-I 747 W/m 4,3 C 16,3 C 5,2 kts (2 Bft) 100,00 %
21.04.2019 12:14 16,8 C 43 % 1022,4 hPa 0,0 l/m 2,3 kts (1 Bft) O-NO 67 1 min 4,2 UV-I 745 W/m 4,2 C 16,8 C 3,5 kts (2 Bft) 100,00 %
21.04.2019 12:13 17,0 C 52 % 1022,4 hPa 0,0 l/m 2,8 kts (1 Bft) O-NO 62 1 min 4,1 UV-I 745 W/m 7,1 C 17,0 C 4,3 kts (2 Bft) 95,65 %
21.04.2019 12:12 16,9 C 52 % 1022,3 hPa 0,0 l/m 3,2 kts (2 Bft) N-NO 14 1 min 4,1 UV-I 744 W/m 7,0 C 16,9 C 4,3 kts (2 Bft) 100,00 %
21.04.2019 12:11 16,7 C 48 % 1022,4 hPa 0,0 l/m 5,2 kts (2 Bft) O-NO 64 1 min 4,1 UV-I 744 W/m 5,6 C 15,1 C 7,0 kts (3 Bft) 95,65 %
21.04.2019 12:10 16,7 C 46 % 1022,4 hPa 0,0 l/m 3,9 kts (2 Bft) NO 56 1 min 4,1 UV-I 742 W/m 5,0 C 16,2 C 7,0 kts (3 Bft) 100,00 %
21.04.2019 12:09 16,9 C 42 % 1022,4 hPa 0,0 l/m 4,2 kts (2 Bft) O-NO 66 1 min 4,1 UV-I 740 W/m 3,9 C 16,2 C 5,2 kts (2 Bft) 100,00 %
21.04.2019 12:08 17,2 C 42 % 1022,4 hPa 0,0 l/m 6,0 kts (2 Bft) O-NO 62 1 min 4,1 UV-I 738 W/m 4,2 C 15,1 C 7,8 kts (3 Bft) 100,00 %
21.04.2019 12:07 17,6 C 47 % 1022,4 hPa 0,0 l/m 8,7 kts (3 Bft) O-NO 57 1 min 4,1 UV-I 737 W/m 6,2 C 14,0 C 10,4 kts (3 Bft) 100,00 %
21.04.2019 12:06 17,6 C 46 % 1022,4 hPa 0,0 l/m 8,4 kts (3 Bft) O-NO 68 1 min 4,1 UV-I 735 W/m 5,8 C 14,2 C 10,4 kts (3 Bft) 100,00 %
21.04.2019 12:05 17,5 C 44 % 1022,4 hPa 0,0 l/m 6,0 kts (2 Bft) NO 36 1 min 4,1 UV-I 737 W/m 5,1 C 15,5 C 7,8 kts (3 Bft) 100,00 %
21.04.2019 12:04 17,7 C 47 % 1022,5 hPa 0,0 l/m 5,2 kts (2 Bft) NO 35 1 min 4,1 UV-I 737 W/m 6,2 C 16,3 C 7,0 kts (3 Bft) 100,00 %
21.04.2019 12:03 17,7 C 44 % 1022,5 hPa 0,0 l/m 5,7 kts (2 Bft) N-NO 25 1 min 4,1 UV-I 735 W/m 5,3 C 15,9 C 8,7 kts (3 Bft) 100,00 %
21.04.2019 12:02 17,8 C 46 % 1022,5 hPa 0,0 l/m 5,2 kts (2 Bft) NO 48 1 min 4,1 UV-I 735 W/m 6,0 C 16,4 C 7,8 kts (3 Bft) 95,83 %
21.04.2019 12:01 17,7 C 51 % 1022,5 hPa 0,0 l/m 5,0 kts (2 Bft) NO 40 1 min 4,1 UV-I 735 W/m 7,4 C 16,4 C 7,8 kts (3 Bft) 100,00 %
21.04.2019 12:00 17,5 C 50 % 1022,6 hPa 0,0 l/m 2,5 kts (1 Bft) NO 36 1 min 4,0 UV-I 735 W/m 7,0 C 17,5 C 4,3 kts (2 Bft) 100,00 %
21.04.2019 11:59 17,2 C 48 % 1022,4 hPa 0,0 l/m 3,5 kts (2 Bft) NO 36 1 min 4,0 UV-I 733 W/m 6,1 C 17,2 C 5,2 kts (2 Bft) 95,65 %
21.04.2019 11:58 17,2 C 44 % 1022,5 hPa 0,0 l/m 3,1 kts (1 Bft) NO 49 1 min 4,0 UV-I 733 W/m 4,8 C 17,2 C 3,5 kts (2 Bft) 100,00 %
21.04.2019 11:57 17,3 C 44 % 1022,5 hPa 0,0 l/m 4,4 kts (2 Bft) NO 55 1 min 4,0 UV-I 731 W/m 4,9 C 16,5 C 6,1 kts (2 Bft) 95,83 %
21.04.2019 11:56 17,5 C 44 % 1022,4 hPa 0,0 l/m 4,0 kts (2 Bft) NO 42 1 min 4,0 UV-I 733 W/m 5,1 C 17,0 C 6,1 kts (2 Bft) 95,65 %
21.04.2019 11:55 17,5 C 44 % 1022,4 hPa 0,0 l/m 4,0 kts (2 Bft) N-NO 24 1 min 4,0 UV-I 729 W/m 5,1 C 17,0 C 6,1 kts (2 Bft) 100,00 %
21.04.2019 11:54 17,4 C 44 % 1022,5 hPa 0,0 l/m 3,1 kts (2 Bft) N-NO 28 1 min 4,0 UV-I 729 W/m 5,0 C 17,4 C 4,3 kts (2 Bft) 100,00 %
21.04.2019 11:53 17,4 C 48 % 1022,5 hPa 0,0 l/m 4,4 kts (2 Bft) N-NO 29 1 min 4,0 UV-I 731 W/m 6,3 C 16,5 C 7,0 kts (3 Bft) 100,00 %
21.04.2019 11:52 17,1 C 47 % 1022,5 hPa 0,0 l/m 3,5 kts (2 Bft) NO 36 1 min 4,0 UV-I 728 W/m 5,7 C 17,1 C 5,2 kts (2 Bft) 100,00 %
21.04.2019 11:51 16,9 C 42 % 1022,5 hPa 0,0 l/m 2,1 kts (1 Bft) N-NO 25 1 min 4,0 UV-I 726 W/m 3,9 C 16,9 C 7,0 kts (3 Bft) 100,00 %
21.04.2019 11:50 16,9 C 40 % 1022,5 hPa 0,0 l/m 1,8 kts (1 Bft) O-NO 63 1 min 4,0 UV-I 722 W/m 3,2 C 16,9 C 3,5 kts (2 Bft) 100,00 %
21.04.2019 11:49 17,1 C 43 % 1022,6 hPa 0,0 l/m 3,3 kts (2 Bft) O-NO 62 1 min 3,9 UV-I 719 W/m 4,4 C 17,1 C 4,3 kts (2 Bft) 100,00 %
21.04.2019 11:48 17,4 C 42 % 1022,6 hPa 0,0 l/m 3,3 kts (2 Bft) NO 36 1 min 3,9 UV-I 717 W/m 4,4 C 17,4 C 4,3 kts (2 Bft) 100,00 %
21.04.2019 11:47 17,4 C 44 % 1022,5 hPa 0,0 l/m 4,2 kts (2 Bft) NO 34 1 min 3,9 UV-I 717 W/m 5,0 C 16,7 C 5,2 kts (2 Bft) 100,00 %
21.04.2019 11:46 17,5 C 48 % 1022,5 hPa 0,0 l/m 4,6 kts (2 Bft) N-NO 31 1 min 3,9 UV-I 715 W/m 6,4 C 16,5 C 5,2 kts (2 Bft) 100,00 %
21.04.2019 11:45 17,5 C 42 % 1022,6 hPa 0,0 l/m 4,4 kts (2 Bft) N-NO 31 1 min 3,9 UV-I 717 W/m 4,4 C 16,6 C 5,2 kts (2 Bft) 100,00 %
21.04.2019 11:44 17,4 C 44 % 1022,5 hPa 0,0 l/m 6,1 kts (2 Bft) N-NO 30 1 min 3,9 UV-I 719 W/m 5,0 C 15,3 C 9,6 kts (3 Bft) 100,00 %
21.04.2019 11:43 17,3 C 42 % 1022,5 hPa 0,0 l/m 6,7 kts (3 Bft) NO 41 1 min 3,9 UV-I 717 W/m 4,3 C 14,8 C 9,6 kts (3 Bft) 100,00 %
21.04.2019 11:42 17,0 C 45 % 1022,5 hPa 0,0 l/m 5,1 kts (2 Bft) N-NO 17 1 min 3,9 UV-I 717 W/m 5,0 C 15,5 C 7,8 kts (3 Bft) 100,00 %
21.04.2019 11:41 16,8 C 46 % 1022,5 hPa 0,0 l/m 3,6 kts (2 Bft) N-NO 33 1 min 3,9 UV-I 717 W/m 5,1 C 16,7 C 5,2 kts (2 Bft) 100,00 %
21.04.2019 11:40 16,5 C 45 % 1022,6 hPa 0,0 l/m 1,1 kts (1 Bft) O-NO 57 1 min 3,9 UV-I 715 W/m 4,5 C 16,5 C 2,6 kts (1 Bft) 100,00 %
21.04.2019 11:39 16,4 C 46 % 1022,6 hPa 0,0 l/m 0,7 kts (1 Bft) SO 128 1 min 3,9 UV-I 714 W/m 4,8 C 16,4 C 1,7 kts (1 Bft) 100,00 %
21.04.2019 11:38 16,4 C 50 % 1022,7 hPa 0,0 l/m 1,0 kts (1 Bft) O-SO 121 1 min 3,8 UV-I 714 W/m 6,0 C 16,4 C 1,7 kts (1 Bft) 100,00 %
21.04.2019 11:37 16,4 C 46 % 1022,6 hPa 0,0 l/m 3,7 kts (2 Bft) O-SO 123 1 min 3,8 UV-I 710 W/m 4,8 C 16,2 C 5,2 kts (2 Bft) 96,15 %
21.04.2019 11:36 16,6 C 44 % 1022,7 hPa 0,0 l/m 2,1 kts (1 Bft) O-NO 72 1 min 3,8 UV-I 710 W/m 4,3 C 16,6 C 4,3 kts (2 Bft) 100,00 %
21.04.2019 11:35 16,6 C 46 % 1022,7 hPa 0,0 l/m 0,5 kts (0 Bft) N-NO 13 1 min 3,8 UV-I 707 W/m 4,9 C 16,6 C 1,7 kts (1 Bft) 95,65 %
21.04.2019 11:34 16,7 C 44 % 1022,8 hPa 0,0 l/m 0,7 kts (1 Bft) N-NO 12 1 min 3,8 UV-I 707 W/m 4,4 C 16,7 C 1,7 kts (1 Bft) 95,65 %
21.04.2019 11:33 16,7 C 45 % 1022,7 hPa 0,0 l/m 1,9 kts (1 Bft) N-NO 16 1 min 3,8 UV-I 707 W/m 4,7 C 16,7 C 3,5 kts (2 Bft) 96,30 %
21.04.2019 11:32 16,5 C 45 % 1022,7 hPa 0,0 l/m 2,4 kts (1 Bft) N-NO 17 1 min 3,8 UV-I 705 W/m 4,5 C 16,5 C 3,5 kts (2 Bft) 100,00 %
21.04.2019 11:31 16,7 C 48 % 1022,8 hPa 0,0 l/m 4,0 kts (2 Bft) N-NO 16 1 min 3,7 UV-I 703 W/m 5,6 C 16,1 C 5,2 kts (2 Bft) 95,83 %
21.04.2019 11:30 16,9 C 50 % 1022,7 hPa 0,0 l/m 4,5 kts (2 Bft) NO 36 1 min 3,7 UV-I 703 W/m 6,4 C 15,9 C 6,1 kts (2 Bft) 95,65 %
21.04.2019 11:29 16,7 C 49 % 1022,8 hPa 0,0 l/m 4,6 kts (2 Bft) NO 36 1 min 3,7 UV-I 700 W/m 5,9 C 15,6 C 7,0 kts (3 Bft) 95,83 %
21.04.2019 11:28 16,6 C 48 % 1022,8 hPa 0,0 l/m 3,2 kts (2 Bft) NO 44 1 min 3,7 UV-I 700 W/m 5,5 C 16,6 C 4,3 kts (2 Bft) 95,65 %
21.04.2019 11:27 16,6 C 51 % 1022,7 hPa 0,0 l/m 5,1 kts (2 Bft) NO 48 1 min 3,7 UV-I 698 W/m 6,4 C 15,1 C 6,1 kts (2 Bft) 95,65 %
21.04.2019 11:26 16,7 C 44 % 1022,8 hPa 0,0 l/m 4,8 kts (2 Bft) NO 55 1 min 3,7 UV-I 694 W/m 4,4 C 15,5 C 7,0 kts (3 Bft) 100,00 %
21.04.2019 11:25 17,1 C 48 % 1022,8 hPa 0,0 l/m 3,3 kts (2 Bft) NO 44 1 min 3,7 UV-I 694 W/m 6,0 C 17,1 C 5,2 kts (2 Bft) 95,65 %
21.04.2019 11:24 17,2 C 49 % 1022,7 hPa 0,0 l/m 5,5 kts (2 Bft) NO 50 1 min 3,6 UV-I 693 W/m 6,4 C 15,5 C 6,1 kts (2 Bft) 95,83 %
21.04.2019 11:23 17,3 C 46 % 1022,7 hPa 0,0 l/m 3,9 kts (2 Bft) N-NO 28 1 min 3,6 UV-I 693 W/m 5,6 C 16,9 C 5,2 kts (2 Bft) 100,00 %
21.04.2019 11:22 17,4 C 46 % 1022,7 hPa 0,0 l/m 6,1 kts (2 Bft) N-NO 27 1 min 3,6 UV-I 691 W/m 5,7 C 15,3 C 7,8 kts (3 Bft) 92,31 %
21.04.2019 11:21 17,3 C 48 % 1022,7 hPa 0,0 l/m 7,2 kts (3 Bft) N-NO 31 1 min 3,6 UV-I 691 W/m 6,2 C 14,5 C 7,8 kts (3 Bft) 100,00 %
21.04.2019 11:20 17,1 C 47 % 1022,7 hPa 0,0 l/m 6,1 kts (2 Bft) NO 45 1 min 3,6 UV-I 691 W/m 5,7 C 14,9 C 7,0 kts (3 Bft) 95,65 %
21.04.2019 11:19 16,8 C 52 % 1022,8 hPa 0,0 l/m 4,8 kts (2 Bft) N-NO 29 1 min 3,6 UV-I 689 W/m 6,9 C 15,6 C 6,1 kts (2 Bft) 100,00 %
21.04.2019 11:18 16,4 C 46 % 1022,9 hPa 0,0 l/m 2,4 kts (1 Bft) N-NO 15 1 min 3,6 UV-I 689 W/m 4,8 C 16,4 C 4,3 kts (2 Bft) 95,65 %
21.04.2019 11:17 16,3 C 52 % 1022,8 hPa 0,0 l/m 3,7 kts (2 Bft) N-NO 26 1 min 3,6 UV-I 686 W/m 6,4 C 16,1 C 5,2 kts (2 Bft) 100,00 %
21.04.2019 11:16 16,4 C 48 % 1022,9 hPa 0,0 l/m 3,1 kts (1 Bft) N-NO 27 1 min 3,6 UV-I 684 W/m 5,4 C 16,4 C 3,5 kts (2 Bft) 100,00 %
21.04.2019 11:15 16,4 C 47 % 1022,9 hPa 0,0 l/m 3,5 kts (2 Bft) N-NO 19 1 min 3,5 UV-I 682 W/m 5,1 C 16,4 C 6,1 kts (2 Bft) 100,00 %
21.04.2019 11:14 16,3 C 47 % 1022,9 hPa 0,0 l/m 2,1 kts (1 Bft) N-NO 19 1 min 3,5 UV-I 680 W/m 5,0 C 16,3 C 7,0 kts (3 Bft) 100,00 %
21.04.2019 11:13 16,3 C 47 % 1022,9 hPa 0,0 l/m 1,6 kts (1 Bft) N-NO 13 1 min 3,5 UV-I 680 W/m 5,0 C 16,3 C 4,3 kts (2 Bft) 95,65 %
21.04.2019 11:12 16,3 C 47 % 1022,9 hPa 0,0 l/m 3,9 kts (2 Bft) N-NO 33 1 min 3,5 UV-I 679 W/m 5,0 C 15,8 C 5,2 kts (2 Bft) 100,00 %
21.04.2019 11:11 16,3 C 52 % 1022,9 hPa 0,0 l/m 4,5 kts (2 Bft) NO 39 1 min 3,5 UV-I 677 W/m 6,4 C 15,3 C 7,0 kts (3 Bft) 95,65 %
21.04.2019 11:10 16,4 C 49 % 1022,9 hPa 0,0 l/m 5,0 kts (2 Bft) N-NO 31 1 min 3,4 UV-I 675 W/m 5,7 C 15,0 C 5,2 kts (2 Bft) 100,00 %
21.04.2019 11:09 16,8 C 49 % 1022,9 hPa 0,0 l/m 5,7 kts (2 Bft) N-NO 32 1 min 3,4 UV-I 673 W/m 6,0 C 14,9 C 7,8 kts (3 Bft) 100,00 %
21.04.2019 11:08 16,9 C 51 % 1022,9 hPa 0,0 l/m 4,2 kts (2 Bft) NO 44 1 min 3,4 UV-I 673 W/m 6,7 C 16,2 C 6,1 kts (2 Bft) 100,00 %
21.04.2019 11:07 16,9 C 45 % 1022,9 hPa 0,0 l/m 5,0 kts (2 Bft) N-NO 31 1 min 3,4 UV-I 671 W/m 4,9 C 15,5 C 6,1 kts (2 Bft) 100,00 %
21.04.2019 11:06 16,9 C 48 % 1022,9 hPa 0,0 l/m 4,6 kts (2 Bft) NO 49 1 min 3,4 UV-I 670 W/m 5,8 C 15,8 C 6,1 kts (2 Bft) 100,00 %
21.04.2019 11:05 16,9 C 47 % 1022,9 hPa 0,0 l/m 4,9 kts (2 Bft) N-NO 29 1 min 3,4 UV-I 668 W/m 5,5 C 15,6 C 7,0 kts (3 Bft) 100,00 %
21.04.2019 11:04 17,0 C 47 % 1023,0 hPa 0,0 l/m 3,2 kts (2 Bft) NO 34 1 min 3,3 UV-I 666 W/m 5,6 C 17,0 C 5,2 kts (2 Bft) 91,30 %
21.04.2019 11:03 16,8 C 49 % 1022,9 hPa 0,0 l/m 4,1 kts (2 Bft) NO 37 1 min 3,3 UV-I 664 W/m 6,0 C 16,2 C 5,2 kts (2 Bft) 100,00 %
21.04.2019 11:02 16,6 C 52 % 1023,0 hPa 0,0 l/m 4,9 kts (2 Bft) N-NO 32 1 min 3,3 UV-I 664 W/m 6,7 C 15,3 C 6,1 kts (2 Bft) 100,00 %
21.04.2019 11:01 16,5 C 48 % 1022,9 hPa 0,0 l/m 4,6 kts (2 Bft) N-NO 31 1 min 3,3 UV-I 663 W/m 5,5 C 15,4 C 5,2 kts (2 Bft) 100,00 %
21.04.2019 11:00 16,3 C 48 % 1023,0 hPa 0,0 l/m 3,9 kts (2 Bft) N-NO 25 1 min 3,3 UV-I 661 W/m 5,3 C 15,9 C 5,2 kts (2 Bft) 100,00 %
21.04.2019 10:59 16,3 C 49 % 1023,0 hPa 0,0 l/m 3,2 kts (2 Bft) N-NO 19 1 min 3,3 UV-I 657 W/m 5,6 C 16,3 C 3,5 kts (2 Bft) 100,00 %
21.04.2019 10:58 16,4 C 45 % 1023,0 hPa 0,0 l/m 3,0 kts (1 Bft) NO 36 1 min 3,3 UV-I 657 W/m 4,4 C 16,4 C 4,3 kts (2 Bft) 100,00 %
21.04.2019 10:57 16,5 C 50 % 1023,1 hPa 0,0 l/m 4,3 kts (2 Bft) NO 36 1 min 3,2 UV-I 654 W/m 6,0 C 15,7 C 6,1 kts (2 Bft) 100,00 %
21.04.2019 10:56 16,3 C 50 % 1023,0 hPa 0,0 l/m 5,6 kts (2 Bft) NO 34 1 min 3,2 UV-I 654 W/m 5,9 C 14,4 C 7,8 kts (3 Bft) 100,00 %
21.04.2019 10:55 15,9 C 53 % 1023,0 hPa 0,0 l/m 5,9 kts (2 Bft) N-NO 25 1 min 3,2 UV-I 654 W/m 6,3 C 13,7 C 7,0 kts (3 Bft) 100,00 %
21.04.2019 10:54 15,7 C 54 % 1023,0 hPa 0,0 l/m 7,1 kts (3 Bft) NO 44 1 min 3,2 UV-I 652 W/m 6,4 C 12,6 C 8,7 kts (3 Bft) 100,00 %
21.04.2019 10:53 15,7 C 52 % 1023,0 hPa 0,0 l/m 6,6 kts (3 Bft) NO 49 1 min 3,2 UV-I 649 W/m 5,9 C 13,0 C 7,8 kts (3 Bft) 100,00 %
21.04.2019 10:52 15,4 C 53 % 1023,1 hPa 0,0 l/m 3,0 kts (1 Bft) N-NO 19 1 min 3,1 UV-I 647 W/m 5,9 C 15,4 C 3,5 kts (2 Bft) 100,00 %
21.04.2019 10:51 15,2 C 53 % 1023,1 hPa 0,0 l/m 3,9 kts (2 Bft) NO 37 1 min 3,1 UV-I 645 W/m 5,7 C 14,8 C 5,2 kts (2 Bft) 96,15 %
21.04.2019 10:50 15,1 C 53 % 1023,1 hPa 0,0 l/m 4,6 kts (2 Bft) O-NO 59 1 min 3,1 UV-I 645 W/m 5,6 C 13,9 C 5,2 kts (2 Bft) 100,00 %
21.04.2019 10:49 15,1 C 48 % 1023,1 hPa 0,0 l/m 3,9 kts (2 Bft) NO 54 1 min 3,1 UV-I 643 W/m 4,2 C 14,6 C 5,2 kts (2 Bft) 100,00 %
21.04.2019 10:48 15,3 C 51 % 1023,1 hPa 0,0 l/m 4,0 kts (2 Bft) O-NO 67 1 min 3,1 UV-I 642 W/m 5,2 C 14,7 C 5,2 kts (2 Bft) 100,00 %
21.04.2019 10:47 15,6 C 48 % 1023,1 hPa 0,0 l/m 2,5 kts (1 Bft) N-NO 32 1 min 3,1 UV-I 640 W/m 4,6 C 15,6 C 4,3 kts (2 Bft) 100,00 %
21.04.2019 10:46 15,7 C 54 % 1023,1 hPa 0,0 l/m 2,4 kts (1 Bft) NO 41 1 min 3,1 UV-I 638 W/m 6,4 C 15,7 C 3,5 kts (2 Bft) 95,65 %
21.04.2019 10:45 15,7 C 52 % 1023,1 hPa 0,0 l/m 1,7 kts (1 Bft) NO 41 1 min 3,1 UV-I 636 W/m 5,9 C 15,7 C 2,6 kts (1 Bft) 100,00 %
21.04.2019 10:44 15,6 C 51 % 1023,1 hPa 0,0 l/m 2,1 kts (1 Bft) NO 41 1 min 3,1 UV-I 635 W/m 5,5 C 15,6 C 2,6 kts (1 Bft) 91,30 %
21.04.2019 10:43 15,8 C 49 % 1023,1 hPa 0,0 l/m 3,0 kts (1 Bft) NO 40 1 min 3,0 UV-I 633 W/m 5,1 C 15,8 C 4,3 kts (2 Bft) 100,00 %
21.04.2019 10:42 15,9 C 49 % 1023,1 hPa 0,0 l/m 4,0 kts (2 Bft) NO 40 1 min 3,0 UV-I 631 W/m 5,2 C 15,4 C 5,2 kts (2 Bft) 100,00 %
21.04.2019 10:41 15,9 C 48 % 1023,1 hPa 0,0 l/m 4,9 kts (2 Bft) NO 42 1 min 3,0 UV-I 629 W/m 4,9 C 14,5 C 6,1 kts (2 Bft) 100,00 %
21.04.2019 10:40 15,8 C 50 % 1023,2 hPa 0,0 l/m 5,0 kts (2 Bft) NO 34 1 min 3,0 UV-I 626 W/m 5,4 C 14,4 C 6,1 kts (2 Bft) 100,00 %
21.04.2019 10:39 15,6 C 52 % 1023,1 hPa 0,0 l/m 4,6 kts (2 Bft) NO 36 1 min 3,0 UV-I 624 W/m 5,8 C 14,4 C 7,0 kts (3 Bft) 100,00 %
21.04.2019 10:38 15,5 C 50 % 1023,2 hPa 0,0 l/m 4,0 kts (2 Bft) N-NO 25 1 min 2,9 UV-I 621 W/m 5,1 C 14,9 C 4,3 kts (2 Bft) 100,00 %
21.04.2019 10:37 15,4 C 50 % 1023,1 hPa 0,0 l/m 3,3 kts (2 Bft) NO 34 1 min 2,9 UV-I 619 W/m 5,0 C 15,4 C 4,3 kts (2 Bft) 95,65 %
21.04.2019 10:36 15,2 C 52 % 1023,1 hPa 0,0 l/m 4,4 kts (2 Bft) N-NO 27 1 min 2,9 UV-I 617 W/m 5,4 C 14,2 C 6,1 kts (2 Bft) 100,00 %
21.04.2019 10:35 14,9 C 53 % 1023,2 hPa 0,0 l/m 2,6 kts (1 Bft) N-NO 31 1 min 2,9 UV-I 613 W/m 5,4 C 14,9 C 6,1 kts (2 Bft) 100,00 %
21.04.2019 10:34 14,9 C 52 % 1023,1 hPa 0,0 l/m 2,3 kts (1 Bft) N-NO 17 1 min 2,9 UV-I 613 W/m 5,1 C 14,9 C 7,0 kts (3 Bft) 95,65 %
21.04.2019 10:33 15,0 C 49 % 1023,1 hPa 0,0 l/m 1,0 kts (1 Bft) NO 46 1 min 2,9 UV-I 610 W/m 4,4 C 15,0 C 1,7 kts (1 Bft) 100,00 %
21.04.2019 10:32 15,1 C 52 % 1023,1 hPa 0,0 l/m 1,3 kts (1 Bft) NO 46 1 min 2,8 UV-I 610 W/m 5,3 C 15,1 C 2,6 kts (1 Bft) 95,65 %
21.04.2019 10:31 15,1 C 51 % 1023,1 hPa 0,0 l/m 3,2 kts (2 Bft) NO 46 1 min 2,8 UV-I 608 W/m 5,0 C 15,1 C 3,5 kts (2 Bft) 100,00 %
21.04.2019 10:30 15,1 C 51 % 1023,1 hPa 0,0 l/m 3,2 kts (2 Bft) NO 46 1 min 2,8 UV-I 605 W/m 5,0 C 15,1 C 4,3 kts (2 Bft) 100,00 %
21.04.2019 10:29 14,7 C 55 % 1023,1 hPa 0,0 l/m 1,7 kts (1 Bft) NO 46 1 min 2,8 UV-I 606 W/m 5,8 C 14,7 C 2,6 kts (1 Bft) 100,00 %
21.04.2019 10:28 14,5 C 55 % 1023,3 hPa 0,0 l/m 2,0 kts (1 Bft) NO 46 1 min 2,8 UV-I 605 W/m 5,6 C 14,5 C 3,5 kts (2 Bft) 91,30 %
21.04.2019 10:27 14,4 C 53 % 1023,2 hPa 0,0 l/m 3,2 kts (2 Bft) NO 46 1 min 2,7 UV-I 603 W/m 4,9 C 14,4 C 4,3 kts (2 Bft) 100,00 %
21.04.2019 10:26 14,5 C 53 % 1023,2 hPa 0,0 l/m 2,1 kts (1 Bft) NO 44 1 min 2,7 UV-I 601 W/m 5,0 C 14,5 C 4,3 kts (2 Bft) 95,65 %
21.04.2019 10:25 14,4 C 55 % 1023,2 hPa 0,0 l/m 2,3 kts (1 Bft) O-NO 71 1 min 2,7 UV-I 599 W/m 5,5 C 14,4 C 3,5 kts (2 Bft) 100,00 %
21.04.2019 10:24 14,4 C 51 % 1023,2 hPa 0,0 l/m 3,7 kts (2 Bft) O-NO 68 1 min 2,7 UV-I 598 W/m 4,4 C 14,2 C 5,2 kts (2 Bft) 95,83 %
21.04.2019 10:23 14,6 C 58 % 1023,3 hPa 0,0 l/m 3,8 kts (2 Bft) O-NO 57 1 min 2,7 UV-I 594 W/m 6,4 C 14,2 C 5,2 kts (2 Bft) 100,00 %
21.04.2019 10:22 14,7 C 49 % 1023,2 hPa 0,0 l/m 4,0 kts (2 Bft) NO 36 1 min 2,7 UV-I 592 W/m 4,1 C 14,1 C 5,2 kts (2 Bft) 96,30 %
21.04.2019 10:21 15,1 C 49 % 1023,3 hPa 0,0 l/m 3,5 kts (2 Bft) N-NO 33 1 min 2,7 UV-I 591 W/m 4,5 C 15,1 C 4,3 kts (2 Bft) 96,15 %
21.04.2019 10:20 15,1 C 51 % 1023,2 hPa 0,0 l/m 3,9 kts (2 Bft) N-NO 33 1 min 2,6 UV-I 589 W/m 5,0 C 14,6 C 4,3 kts (2 Bft) 95,65 %
21.04.2019 10:19 15,2 C 58 % 1023,2 hPa 0,0 l/m 4,1 kts (2 Bft) N-NO 31 1 min 2,6 UV-I 587 W/m 7,0 C 14,5 C 5,2 kts (2 Bft) 95,83 %
21.04.2019 10:18 15,1 C 52 % 1023,2 hPa 0,0 l/m 4,2 kts (2 Bft) N-NO 26 1 min 2,6 UV-I 585 W/m 5,3 C 14,3 C 5,2 kts (2 Bft) 100,00 %
21.04.2019 10:17 15,1 C 50 % 1023,2 hPa 0,0 l/m 3,4 kts (2 Bft) NO 38 1 min 2,6 UV-I 580 W/m 4,8 C 15,1 C 5,2 kts (2 Bft) 96,15 %
21.04.2019 10:16 15,2 C 52 % 1023,2 hPa 0,0 l/m 3,8 kts (2 Bft) NO 38 1 min 2,6 UV-I 580 W/m 5,4 C 14,8 C 5,2 kts (2 Bft) 100,00 %
21.04.2019 10:15 15,1 C 52 % 1023,2 hPa 0,0 l/m 4,6 kts (2 Bft) NO 38 1 min 2,5 UV-I 577 W/m 5,3 C 13,9 C 6,1 kts (2 Bft) 95,65 %
21.04.2019 10:14 14,9 C 56 % 1023,2 hPa 0,0 l/m 4,8 kts (2 Bft) NO 43 1 min 2,5 UV-I 577 W/m 6,2 C 13,6 C 6,1 kts (2 Bft) 95,83 %
21.04.2019 10:13 15,0 C 50 % 1023,3 hPa 0,0 l/m 3,0 kts (1 Bft) NO 40 1 min 2,5 UV-I 575 W/m 4,7 C 15,0 C 5,2 kts (2 Bft) 95,65 %
21.04.2019 10:12 14,9 C 52 % 1023,2 hPa 0,0 l/m 2,6 kts (1 Bft) NO 40 1 min 2,5 UV-I 571 W/m 5,1 C 14,9 C 4,3 kts (2 Bft) 95,83 %
21.04.2019 10:11 14,8 C 52 % 1023,3 hPa 0,0 l/m 3,6 kts (2 Bft) NO 40 1 min 2,5 UV-I 570 W/m 5,0 C 14,7 C 4,3 kts (2 Bft) 100,00 %
21.04.2019 10:10 14,7 C 56 % 1023,2 hPa 0,0 l/m 3,7 kts (2 Bft) NO 40 1 min 2,5 UV-I 564 W/m 6,0 C 14,4 C 5,2 kts (2 Bft) 95,83 %
21.04.2019 10:09 14,5 C 54 % 1023,2 hPa 0,0 l/m 3,0 kts (1 Bft) NO 40 1 min 2,4 UV-I 566 W/m 5,3 C 14,5 C 4,3 kts (2 Bft) 91,30 %
21.04.2019 10:08 14,5 C 55 % 1023,3 hPa 0,0 l/m 3,0 kts (1 Bft) NO 40 1 min 2,4 UV-I 564 W/m 5,6 C 14,5 C 3,5 kts (2 Bft) 100,00 %
21.04.2019 10:07 14,7 C 52 % 1023,3 hPa 0,0 l/m 3,7 kts (2 Bft) NO 40 1 min 2,4 UV-I 563 W/m 5,0 C 14,5 C 5,2 kts (2 Bft) 100,00 %
21.04.2019 10:06 14,7 C 52 % 1023,3 hPa 0,0 l/m 3,2 kts (2 Bft) NO 42 1 min 2,4 UV-I 557 W/m 5,0 C 14,7 C 4,3 kts (2 Bft) 100,00 %
21.04.2019 10:05 14,7 C 51 % 1023,3 hPa 0,0 l/m 3,2 kts (2 Bft) NO 42 1 min 2,4 UV-I 557 W/m 4,7 C 14,7 C 4,3 kts (2 Bft) 100,00 %
21.04.2019 10:04 14,6 C 56 % 1023,3 hPa 0,0 l/m 4,0 kts (2 Bft) NO 42 1 min 2,3 UV-I 554 W/m 5,9 C 14,0 C 5,2 kts (2 Bft) 100,00 %
21.04.2019 10:03 14,4 C 54 % 1023,3 hPa 0,0 l/m 3,4 kts (2 Bft) NO 42 1 min 2,3 UV-I 552 W/m 5,2 C 14,4 C 4,3 kts (2 Bft) 100,00 %
21.04.2019 10:02 14,3 C 52 % 1023,4 hPa 0,0 l/m 2,7 kts (1 Bft) NO 42 1 min 2,3 UV-I 548 W/m 4,6 C 14,3 C 3,5 kts (2 Bft) 100,00 %
21.04.2019 10:01 14,3 C 54 % 1023,3 hPa 0,0 l/m 3,0 kts (1 Bft) NO 42 1 min 2,3 UV-I 547 W/m 5,1 C 14,3 C 3,5 kts (2 Bft) 100,00 %
21.04.2019 10:00 14,1 C 55 % 1023,3 hPa 0,0 l/m 2,2 kts (1 Bft) NO 42 1 min 2,3 UV-I 545 W/m 5,2 C 14,1 C 2,6 kts (1 Bft) 100,00 %
21.04.2019 09:59 14,0 C 54 % 1023,4 hPa 0,0 l/m 2,6 kts (1 Bft) NO 42 1 min 2,3 UV-I 543 W/m 4,8 C 14,0 C 3,5 kts (2 Bft) 100,00 %
21.04.2019 09:58 14,1 C 52 % 1023,3 hPa 0,0 l/m 2,3 kts (1 Bft) NO 42 1 min 2,2 UV-I 541 W/m 4,4 C 14,1 C 2,6 kts (1 Bft) 100,00 %
21.04.2019 09:57 14,1 C 55 % 1023,3 hPa 0,0 l/m 2,2 kts (1 Bft) NO 42 1 min 2,2 UV-I 540 W/m 5,2 C 14,1 C 3,5 kts (2 Bft) 100,00 %
21.04.2019 09:56 14,1 C 54 % 1023,3 hPa 0,0 l/m 2,4 kts (1 Bft) NO 42 1 min 2,2 UV-I 538 W/m 4,9 C 14,1 C 4,3 kts (2 Bft) 95,65 %
21.04.2019 09:55 13,9 C 57 % 1023,3 hPa 0,0 l/m 2,1 kts (1 Bft) NO 42 1 min 2,2 UV-I 534 W/m 5,5 C 13,9 C 2,6 kts (1 Bft) 100,00 %
21.04.2019 09:54 13,7 C 57 % 1023,3 hPa 0,0 l/m 2,7 kts (1 Bft) NO 42 1 min 2,2 UV-I 533 W/m 5,3 C 13,7 C 4,3 kts (2 Bft) 100,00 %
21.04.2019 09:53 13,6 C 53 % 1023,3 hPa 0,0 l/m 3,1 kts (2 Bft) NO 42 1 min 2,2 UV-I 531 W/m 4,2 C 13,6 C 4,3 kts (2 Bft) 100,00 %
21.04.2019 09:52 13,7 C 53 % 1023,4 hPa 0,0 l/m 2,7 kts (1 Bft) NO 40 1 min 2,2 UV-I 529 W/m 4,3 C 13,7 C 3,5 kts (2 Bft) 100,00 %
21.04.2019 09:51 13,6 C 51 % 1023,3 hPa 0,0 l/m 3,1 kts (2 Bft) NO 40 1 min 2,2 UV-I 529 W/m 3,7 C 13,6 C 4,3 kts (2 Bft) 100,00 %
21.04.2019 09:50 13,6 C 53 % 1023,4 hPa 0,0 l/m 2,2 kts (1 Bft) NO 40 1 min 2,1 UV-I 526 W/m 4,2 C 13,6 C 3,5 kts (2 Bft) 100,00 %
21.04.2019 09:49 13,5 C 53 % 1023,4 hPa 0,0 l/m 0,5 kts (0 Bft) NO 40 1 min 2,1 UV-I 519 W/m 4,1 C 13,5 C 2,6 kts (1 Bft) 95,65 %
21.04.2019 09:48 13,5 C 53 % 1023,4 hPa 0,0 l/m 0,2 kts (0 Bft) NO 40 1 min 2,1 UV-I 519 W/m 4,1 C 13,5 C 0,9 kts (1 Bft) 100,00 %
21.04.2019 09:47 13,6 C 56 % 1023,4 hPa 0,0 l/m 1,1 kts (1 Bft) NO 40 1 min 2,1 UV-I 515 W/m 5,0 C 13,6 C 2,6 kts (1 Bft) 95,65 %
21.04.2019 09:46 13,5 C 51 % 1023,4 hPa 0,0 l/m 3,3 kts (2 Bft) NO 40 1 min 2,1 UV-I 515 W/m 3,6 C 13,5 C 4,3 kts (2 Bft) 100,00 %
21.04.2019 09:45 13,6 C 53 % 1023,4 hPa 0,0 l/m 2,5 kts (1 Bft) NO 40 1 min 2,1 UV-I 513 W/m 4,2 C 13,6 C 3,5 kts (2 Bft) 95,83 %
21.04.2019 09:44 13,4 C 55 % 1023,3 hPa 0,0 l/m 2,1 kts (1 Bft) NO 40 1 min 2,0 UV-I 512 W/m 4,5 C 13,4 C 2,6 kts (1 Bft) 95,65 %
21.04.2019 09:43 13,4 C 51 % 1023,4 hPa 0,0 l/m 1,1 kts (1 Bft) NO 40 1 min 2,0 UV-I 508 W/m 3,5 C 13,4 C 1,7 kts (1 Bft) 100,00 %
21.04.2019 09:42 13,6 C 49 % 1023,4 hPa 0,0 l/m 1,5 kts (1 Bft) NO 40 1 min 2,0 UV-I 504 W/m 3,1 C 13,6 C 1,7 kts (1 Bft) 100,00 %
21.04.2019 09:41 13,8 C 48 % 1023,4 hPa 0,0 l/m 1,5 kts (1 Bft) NO 40 1 min 2,0 UV-I 503 W/m 3,0 C 13,8 C 2,6 kts (1 Bft) 100,00 %
21.04.2019 09:40 13,8 C 51 % 1023,4 hPa 0,0 l/m 1,5 kts (1 Bft) NO 40 1 min 2,0 UV-I 501 W/m 3,8 C 13,8 C 2,6 kts (1 Bft) 100,00 %
21.04.2019 09:39 13,8 C 52 % 1023,4 hPa 0,0 l/m 2,2 kts (1 Bft) N-NO 30 1 min 2,0 UV-I 499 W/m 4,1 C 13,8 C 3,5 kts (2 Bft) 100,00 %
21.04.2019 09:38 13,8 C 50 % 1023,4 hPa 0,0 l/m 2,7 kts (1 Bft) N-NO 30 1 min 1,9 UV-I 497 W/m 3,6 C 13,8 C 4,3 kts (2 Bft) 100,00 %
21.04.2019 09:37 13,8 C 51 % 1023,4 hPa 0,0 l/m 1,7 kts (1 Bft) N-NO 30 1 min 1,9 UV-I 492 W/m 3,8 C 13,8 C 3,5 kts (2 Bft) 95,65 %
21.04.2019 09:36 13,7 C 52 % 1023,4 hPa 0,0 l/m 0,9 kts (1 Bft) N-NO 30 1 min 1,9 UV-I 492 W/m 4,0 C 13,7 C 2,6 kts (1 Bft) 100,00 %
21.04.2019 09:35 13,6 C 52 % 1023,3 hPa 0,0 l/m 3,0 kts (1 Bft) N-NO 30 1 min 1,9 UV-I 489 W/m 3,9 C 13,6 C 4,3 kts (2 Bft) 100,00 %
21.04.2019 09:34 13,5 C 51 % 1023,4 hPa 0,0 l/m 2,4 kts (1 Bft) N-NO 30 1 min 1,9 UV-I 489 W/m 3,6 C 13,5 C 3,5 kts (2 Bft) 100,00 %
21.04.2019 09:33 13,5 C 51 % 1023,5 hPa 0,0 l/m 1,9 kts (1 Bft) N-NO 30 1 min 1,8 UV-I 485 W/m 3,6 C 13,5 C 2,6 kts (1 Bft) 100,00 %
21.04.2019 09:32 13,5 C 50 % 1023,4 hPa 0,0 l/m 1,5 kts (1 Bft) N-NO 30 1 min 1,8 UV-I 483 W/m 3,3 C 13,5 C 2,6 kts (1 Bft) 100,00 %
21.04.2019 09:31 13,5 C 52 % 1023,4 hPa 0,0 l/m 2,3 kts (1 Bft) N-NO 30 1 min 1,8 UV-I 476 W/m 3,8 C 13,5 C 3,5 kts (2 Bft) 100,00 %
21.04.2019 09:30 13,5 C 51 % 1023,4 hPa 0,0 l/m 3,0 kts (1 Bft) N-NO 30 1 min 1,8 UV-I 476 W/m 3,6 C 13,5 C 3,5 kts (2 Bft) 100,00 %
21.04.2019 09:29 13,5 C 51 % 1023,5 hPa 0,0 l/m 2,7 kts (1 Bft) N-NO 30 1 min 1,8 UV-I 475 W/m 3,6 C 13,5 C 3,5 kts (2 Bft) 95,65 %
21.04.2019 09:28 13,4 C 55 % 1023,4 hPa 0,0 l/m 3,7 kts (2 Bft) N-NO 30 1 min 1,8 UV-I 473 W/m 4,5 C 13,1 C 5,2 kts (2 Bft) 95,83 %
21.04.2019 09:27 13,2 C 55 % 1023,6 hPa 0,0 l/m 2,8 kts (1 Bft) N-NO 30 1 min 1,8 UV-I 469 W/m 4,4 C 13,2 C 3,5 kts (2 Bft) 100,00 %
21.04.2019 09:26 13,0 C 55 % 1023,5 hPa 0,0 l/m 2,6 kts (1 Bft) N-NO 30 1 min 1,7 UV-I 468 W/m 4,2 C 13,0 C 3,5 kts (2 Bft) 100,00 %
21.04.2019 09:25 12,9 C 53 % 1023,5 hPa 0,0 l/m 2,4 kts (1 Bft) N-NO 30 1 min 1,7 UV-I 464 W/m 3,6 C 12,9 C 2,6 kts (1 Bft) 100,00 %
21.04.2019 09:24 12,9 C 51 % 1023,6 hPa 0,0 l/m 1,5 kts (1 Bft) N-NO 30 1 min 1,7 UV-I 461 W/m 3,0 C 12,9 C 3,5 kts (2 Bft) 100,00 %
21.04.2019 09:23 13,0 C 51 % 1023,6 hPa 0,0 l/m 2,5 kts (1 Bft) N-NO 30 1 min 1,7 UV-I 459 W/m 3,1 C 13,0 C 3,5 kts (2 Bft) 100,00 %
21.04.2019 09:22 13,1 C 56 % 1023,6 hPa 0,0 l/m 3,0 kts (1 Bft) N-NO 30 1 min 1,7 UV-I 457 W/m 4,5 C 13,1 C 4,3 kts (2 Bft) 100,00 %
21.04.2019 09:21 13,0 C 56 % 1023,6 hPa 0,0 l/m 2,6 kts (1 Bft) N-NO 30 1 min 1,6 UV-I 454 W/m 4,4 C 13,0 C 3,5 kts (2 Bft) 95,65 %
21.04.2019 09:20 12,9 C 51 % 1023,5 hPa 0,0 l/m 2,3 kts (1 Bft) N-NO 30 1 min 1,6 UV-I 452 W/m 3,0 C 12,9 C 3,5 kts (2 Bft) 95,65 %
21.04.2019 09:19 12,9 C 51 % 1023,6 hPa 0,0 l/m 2,6 kts (1 Bft) N-NO 30 1 min 1,6 UV-I 448 W/m 3,0 C 12,9 C 3,5 kts (2 Bft) 100,00 %
21.04.2019 09:18 13,1 C 51 % 1023,6 hPa 0,0 l/m 2,9 kts (1 Bft) N-NO 30 1 min 1,6 UV-I 446 W/m 3,2 C 13,1 C 4,3 kts (2 Bft) 91,30 %
21.04.2019 09:17 13,1 C 55 % 1023,6 hPa 0,0 l/m 2,4 kts (1 Bft) N-NO 30 1 min 1,6 UV-I 443 W/m 4,3 C 13,1 C 3,5 kts (2 Bft) 100,00 %
21.04.2019 09:16 13,1 C 56 % 1023,6 hPa 0,0 l/m 2,9 kts (1 Bft) N-NO 30 1 min 1,6 UV-I 441 W/m 4,5 C 13,1 C 4,3 kts (2 Bft) 95,65 %
21.04.2019 09:15 13,1 C 56 % 1023,6 hPa 0,0 l/m 3,0 kts (1 Bft) N-NO 30 1 min 1,5 UV-I 439 W/m 4,5 C 13,1 C 4,3 kts (2 Bft) 95,83 %
21.04.2019 09:14 13,0 C 56 % 1023,7 hPa 0,0 l/m 4,0 kts (2 Bft) N-NO 33 1 min 1,5 UV-I 434 W/m 4,4 C 12,4 C 5,2 kts (2 Bft) 95,65 %
21.04.2019 09:13 12,9 C 54 % 1023,7 hPa 0,0 l/m 3,0 kts (1 Bft) N-NO 30 1 min 1,5 UV-I 432 W/m 3,8 C 12,9 C 3,5 kts (2 Bft) 100,00 %
21.04.2019 09:12 13,0 C 51 % 1023,6 hPa 0,0 l/m 3,5 kts (2 Bft) N-NO 30 1 min 1,5 UV-I 429 W/m 3,1 C 13,0 C 4,3 kts (2 Bft) 95,83 %
21.04.2019 09:11 13,1 C 52 % 1023,6 hPa 0,0 l/m 2,3 kts (1 Bft) N-NO 30 1 min 1,5 UV-I 427 W/m 3,5 C 13,1 C 4,3 kts (2 Bft) 95,65 %
21.04.2019 09:10 13,0 C 51 % 1023,6 hPa 0,0 l/m 2,0 kts (1 Bft) N-NO 30 1 min 1,5 UV-I 425 W/m 3,1 C 13,0 C 2,6 kts (1 Bft) 100,00 %
21.04.2019 09:09 12,9 C 52 % 1023,6 hPa 0,0 l/m 1,2 kts (1 Bft) N-NO 30 1 min 1,4 UV-I 424 W/m 3,3 C 12,9 C 2,6 kts (1 Bft) 95,65 %
21.04.2019 09:08 12,9 C 52 % 1023,6 hPa 0,0 l/m 2,5 kts (1 Bft) N-NO 30 1 min 1,4 UV-I 418 W/m 3,3 C 12,9 C 3,5 kts (2 Bft) 100,00 %
21.04.2019 09:07 12,8 C 52 % 1023,6 hPa 0,0 l/m 3,1 kts (2 Bft) N-NO 30 1 min 1,4 UV-I 417 W/m 3,2 C 12,8 C 4,3 kts (2 Bft) 95,83 %
21.04.2019 09:06 12,7 C 52 % 1023,6 hPa 0,0 l/m 3,3 kts (2 Bft) N-NO 30 1 min 1,4 UV-I 415 W/m 3,1 C 12,7 C 4,3 kts (2 Bft) 100,00 %
21.04.2019 09:05 12,6 C 54 % 1023,7 hPa 0,0 l/m 3,2 kts (2 Bft) N-NO 30 1 min 1,4 UV-I 413 W/m 3,5 C 12,6 C 4,3 kts (2 Bft) 95,83 %
21.04.2019 09:04 12,4 C 55 % 1023,6 hPa 0,0 l/m 3,5 kts (2 Bft) N-NO 30 1 min 1,4 UV-I 410 W/m 3,6 C 12,4 C 4,3 kts (2 Bft) 100,00 %
21.04.2019 09:03 12,3 C 55 % 1023,7 hPa 0,0 l/m 2,6 kts (1 Bft) N-NO 30 1 min 1,4 UV-I 408 W/m 3,5 C 12,3 C 3,5 kts (2 Bft) 100,00 %
21.04.2019 09:02 12,3 C 54 % 1023,7 hPa 0,0 l/m 3,0 kts (1 Bft) N-NO 30 1 min 1,3 UV-I 404 W/m 3,3 C 12,3 C 3,5 kts (2 Bft) 100,00 %
21.04.2019 09:01 12,3 C 56 % 1023,7 hPa 0,0 l/m 2,6 kts (1 Bft) N-NO 30 1 min 1,3 UV-I 401 W/m 3,8 C 12,3 C 3,5 kts (2 Bft) 100,00 %
21.04.2019 09:00 12,3 C 54 % 1023,7 hPa 0,0 l/m 3,1 kts (1 Bft) N-NO 30 1 min 1,3 UV-I 397 W/m 3,3 C 12,3 C 3,5 kts (2 Bft) 100,00 %
21.04.2019 08:59 12,3 C 55 % 1023,8 hPa 0,0 l/m 3,5 kts (2 Bft) N-NO 30 1 min 1,3 UV-I 397 W/m 3,5 C 12,3 C 4,3 kts (2 Bft) 100,00 %
21.04.2019 08:58 12,3 C 54 % 1023,7 hPa 0,0 l/m 3,3 kts (2 Bft) N-NO 30 1 min 1,3 UV-I 394 W/m 3,3 C 12,3 C 4,3 kts (2 Bft) 100,00 %
21.04.2019 08:57 12,3 C 53 % 1023,7 hPa 0,0 l/m 3,2 kts (2 Bft) N-NO 30 1 min 1,3 UV-I 390 W/m 3,0 C 12,3 C 4,3 kts (2 Bft) 100,00 %
21.04.2019 08:56 12,3 C 56 % 1023,7 hPa 0,0 l/m 2,5 kts (1 Bft) N-NO 30 1 min 1,3 UV-I 387 W/m 3,8 C 12,3 C 3,5 kts (2 Bft) 91,30 %
21.04.2019 08:55 12,3 C 56 % 1023,8 hPa 0,0 l/m 2,2 kts (1 Bft) N-NO 30 1 min 1,3 UV-I 387 W/m 3,8 C 12,3 C 4,3 kts (2 Bft) 100,00 %
21.04.2019 08:54 12,3 C 55 % 1023,8 hPa 0,0 l/m 3,5 kts (2 Bft) N-NO 30 1 min 1,2 UV-I 383 W/m 3,5 C 12,3 C 4,3 kts (2 Bft) 100,00 %
21.04.2019 08:53 12,2 C 55 % 1023,8 hPa 0,0 l/m 3,2 kts (2 Bft) N-NO 30 1 min 1,2 UV-I 381 W/m 3,4 C 12,2 C 4,3 kts (2 Bft) 100,00 %
21.04.2019 08:52 12,2 C 54 % 1023,8 hPa 0,0 l/m 3,3 kts (2 Bft) N-NO 29 1 min 1,2 UV-I 378 W/m 3,2 C 12,2 C 4,3 kts (2 Bft) 100,00 %
21.04.2019 08:51 12,2 C 58 % 1023,8 hPa 0,0 l/m 2,0 kts (1 Bft) N-NO 29 1 min 1,2 UV-I 376 W/m 4,2 C 12,2 C 3,5 kts (2 Bft) 100,00 %
21.04.2019 08:50 12,1 C 55 % 1023,8 hPa 0,0 l/m 3,2 kts (2 Bft) N-NO 29 1 min 1,2 UV-I 371 W/m 3,3 C 12,1 C 4,3 kts (2 Bft) 100,00 %
21.04.2019 08:49 12,1 C 57 % 1023,8 hPa 0,0 l/m 3,7 kts (2 Bft) N-NO 29 1 min 1,2 UV-I 369 W/m 3,8 C 11,8 C 5,2 kts (2 Bft) 95,65 %
21.04.2019 08:48 12,0 C 53 % 1023,8 hPa 0,0 l/m 2,8 kts (1 Bft) N-NO 18 1 min 1,2 UV-I 367 W/m 2,7 C 12,0 C 4,3 kts (2 Bft) 95,83 %
21.04.2019 08:47 12,0 C 53 % 1023,8 hPa 0,0 l/m 2,8 kts (1 Bft) N-NO 18 1 min 1,2 UV-I 366 W/m 2,7 C 12,0 C 3,5 kts (2 Bft) 100,00 %
21.04.2019 08:46 11,9 C 55 % 1023,8 hPa 0,0 l/m 2,6 kts (1 Bft) N-NO 18 1 min 1,1 UV-I 362 W/m 3,2 C 11,9 C 3,5 kts (2 Bft) 100,00 %
21.04.2019 08:45 11,9 C 57 % 1023,8 hPa 0,0 l/m 2,4 kts (1 Bft) N-NO 18 1 min 1,1 UV-I 357 W/m 3,7 C 11,9 C 4,3 kts (2 Bft) 100,00 %
21.04.2019 08:44 11,9 C 55 % 1023,8 hPa 0,0 l/m 2,2 kts (1 Bft) N-NO 17 1 min 1,1 UV-I 353 W/m 3,2 C 11,9 C 3,5 kts (2 Bft) 100,00 %
21.04.2019 08:43 11,9 C 55 % 1023,8 hPa 0,0 l/m 2,3 kts (1 Bft) N-NO 17 1 min 1,1 UV-I 352 W/m 3,2 C 11,9 C 3,5 kts (2 Bft) 100,00 %
21.04.2019 08:42 11,7 C 55 % 1023,8 hPa 0,0 l/m 3,1 kts (1 Bft) N-NO 17 1 min 1,1 UV-I 350 W/m 3,0 C 11,7 C 3,5 kts (2 Bft) 91,30 %
21.04.2019 08:41 11,7 C 55 % 1023,9 hPa 0,0 l/m 2,3 kts (1 Bft) N-NO 17 1 min 1,1 UV-I 348 W/m 3,0 C 11,7 C 3,5 kts (2 Bft) 91,67 %
21.04.2019 08:40 11,8 C 54 % 1023,8 hPa 0,0 l/m 2,0 kts (1 Bft) N-NO 17 1 min 1,0 UV-I 345 W/m 2,8 C 11,8 C 3,5 kts (2 Bft) 100,00 %
21.04.2019 08:39 11,8 C 52 % 1023,8 hPa 0,0 l/m 2,3 kts (1 Bft) N-NO 17 1 min 1,0 UV-I 341 W/m 2,3 C 11,8 C 2,6 kts (1 Bft) 100,00 %
21.04.2019 08:38 11,7 C 54 % 1023,8 hPa 0,0 l/m 2,1 kts (1 Bft) N-NO 17 1 min 1,0 UV-I 339 W/m 2,7 C 11,7 C 2,6 kts (1 Bft) 100,00 %
21.04.2019 08:37 11,7 C 57 % 1023,8 hPa 0,0 l/m 2,1 kts (1 Bft) N-NO 17 1 min 1,0 UV-I 336 W/m 3,5 C 11,7 C 2,6 kts (1 Bft) 95,65 %
21.04.2019 08:36 11,6 C 54 % 1023,8 hPa 0,0 l/m 1,9 kts (1 Bft) N-NO 17 1 min 1,0 UV-I 332 W/m 2,6 C 11,6 C 2,6 kts (1 Bft) 100,00 %
21.04.2019 08:35 11,4 C 54 % 1023,8 hPa 0,0 l/m 2,0 kts (1 Bft) N-NO 17 1 min 1,0 UV-I 329 W/m 2,4 C 11,4 C 2,6 kts (1 Bft) 95,65 %
21.04.2019 08:34 11,4 C 53 % 1023,8 hPa 0,0 l/m 2,0 kts (1 Bft) N-NO 17 1 min 1,0 UV-I 322 W/m 2,2 C 11,4 C 2,6 kts (1 Bft) 100,00 %
21.04.2019 08:33 11,4 C 54 % 1023,8 hPa 0,0 l/m 0,6 kts (1 Bft) N-NO 17 1 min 1,0 UV-I 316 W/m 2,4 C 11,4 C 1,7 kts (1 Bft) 100,00 %
21.04.2019 08:32 11,3 C 56 % 1023,8 hPa 0,0 l/m 1,4 kts (1 Bft) N-NO 17 1 min 0,9 UV-I 311 W/m 2,8 C 11,3 C 2,6 kts (1 Bft) 100,00 %
21.04.2019 08:31 11,2 C 57 % 1023,8 hPa 0,0 l/m 2,4 kts (1 Bft) N-NO 17 1 min 0,9 UV-I 304 W/m 3,0 C 11,2 C 3,5 kts (2 Bft) 100,00 %
21.04.2019 08:30 11,1 C 55 % 1023,8 hPa 0,0 l/m 1,5 kts (1 Bft) N-NO 17 1 min 0,9 UV-I 299 W/m 2,4 C 11,1 C 2,6 kts (1 Bft) 100,00 %
21.04.2019 08:29 11,0 C 54 % 1023,7 hPa 0,0 l/m 0,9 kts (1 Bft) N-NO 17 1 min 0,9 UV-I 295 W/m 2,1 C 11,0 C 1,7 kts (1 Bft) 100,00 %
21.04.2019 08:28 11,0 C 54 % 1023,8 hPa 0,0 l/m 1,1 kts (1 Bft) N-NO 17 1 min 0,9 UV-I 290 W/m 2,1 C 11,0 C 1,7 kts (1 Bft) 100,00 %
21.04.2019 08:27 11,2 C 56 % 1023,8 hPa 0,0 l/m 2,5 kts (1 Bft) N-NO 17 1 min 0,9 UV-I 281 W/m 2,8 C 11,2 C 4,3 kts (2 Bft) 100,00 %
21.04.2019 08:26 11,3 C 53 % 1023,8 hPa 0,0 l/m 1,8 kts (1 Bft) N-NO 15 1 min 0,9 UV-I 276 W/m 2,1 C 11,3 C 2,6 kts (1 Bft) 100,00 %
21.04.2019 08:25 11,3 C 52 % 1023,8 hPa 0,0 l/m 1,4 kts (1 Bft) N-NO 15 1 min 0,9 UV-I 271 W/m 1,8 C 11,3 C 2,6 kts (1 Bft) 100,00 %
21.04.2019 08:24 11,3 C 53 % 1023,8 hPa 0,0 l/m 1,2 kts (1 Bft) N-NO 15 1 min 0,8 UV-I 265 W/m 2,1 C 11,3 C 1,7 kts (1 Bft) 100,00 %
21.04.2019 08:23 11,2 C 55 % 1023,8 hPa 0,0 l/m 0,9 kts (1 Bft) N-NO 15 1 min 0,8 UV-I 260 W/m 2,5 C 11,2 C 1,7 kts (1 Bft) 100,00 %
21.04.2019 08:22 11,0 C 54 % 1023,7 hPa 0,0 l/m 0,3 kts (0 Bft) N-NO 15 1 min 0,8 UV-I 257 W/m 2,1 C 11,0 C 0,9 kts (1 Bft) 95,65 %
21.04.2019 08:21 10,9 C 57 % 1023,8 hPa 0,0 l/m 0,5 kts (0 Bft) N-NO 15 1 min 0,8 UV-I 248 W/m 2,7 C 10,9 C 0,9 kts (1 Bft) 100,00 %
21.04.2019 08:20 10,9 C 54 % 1023,7 hPa 0,0 l/m 0,5 kts (0 Bft) N-NO 15 1 min 0,8 UV-I 243 W/m 2,0 C 10,9 C 0,9 kts (1 Bft) 100,00 %
21.04.2019 08:19 10,9 C 57 % 1023,7 hPa 0,0 l/m 0,4 kts (0 Bft) N-NO 15 1 min 0,8 UV-I 237 W/m 2,7 C 10,9 C 0,9 kts (1 Bft) 100,00 %
21.04.2019 08:18 10,8 C 52 % 1023,7 hPa 0,0 l/m 0,8 kts (1 Bft) N-NO 15 1 min 0,8 UV-I 236 W/m 1,3 C 10,8 C 1,7 kts (1 Bft) 100,00 %
21.04.2019 08:17 10,8 C 54 % 1023,8 hPa 0,0 l/m 1,6 kts (1 Bft) N-NO 15 1 min 0,8 UV-I 232 W/m 1,9 C 10,8 C 2,6 kts (1 Bft) 95,83 %
21.04.2019 08:16 10,8 C 52 % 1023,8 hPa 0,0 l/m 1,9 kts (1 Bft) N-NO 15 1 min 0,7 UV-I 229 W/m 1,3 C 10,8 C 2,6 kts (1 Bft) 91,30 %
21.04.2019 08:15 10,8 C 52 % 1023,7 hPa 0,0 l/m 1,9 kts (1 Bft) N-NO 15 1 min 0,7 UV-I 223 W/m 1,3 C 10,8 C 2,6 kts (1 Bft) 100,00 %
21.04.2019 08:14 10,8 C 51 % 1023,7 hPa 0,0 l/m 0,4 kts (0 Bft) N-NO 15 1 min 0,7 UV-I 221 W/m 1,1 C 10,8 C 0,9 kts (1 Bft) 100,00 %
21.04.2019 08:13 10,8 C 52 % 1023,7 hPa 0,0 l/m 1,5 kts (1 Bft) N-NO 15 1 min 0,7 UV-I 218 W/m 1,3 C 10,8 C 2,6 kts (1 Bft) 100,00 %
21.04.2019 08:12 10,8 C 52 % 1023,7 hPa 0,0 l/m 0,1 kts (0 Bft) N-NO 15 1 min 0,7 UV-I 214 W/m 1,3 C 10,8 C 0,9 kts (1 Bft) 100,00 %
21.04.2019 08:11 10,7 C 57 % 1023,7 hPa 0,0 l/m 1,1 kts (1 Bft) N-NO 15 1 min 0,7 UV-I 214 W/m 2,5 C 10,7 C 1,7 kts (1 Bft) 100,00 %
21.04.2019 08:10 10,6 C 58 % 1023,7 hPa 0,0 l/m 0,3 kts (0 Bft) N-NO 15 1 min 0,7 UV-I 211 W/m 2,7 C 10,6 C 1,7 kts (1 Bft) 95,65 %
21.04.2019 08:09 10,6 C 56 % 1023,7 hPa 0,0 l/m 0,4 kts (0 Bft) N-NO 15 1 min 0,7 UV-I 209 W/m 2,2 C 10,6 C 0,9 kts (1 Bft) 100,00 %
21.04.2019 08:08 10,6 C 57 % 1023,7 hPa 0,0 l/m 3,1 kts (2 Bft) N-NO 15 1 min 0,6 UV-I 207 W/m 2,4 C 10,6 C 4,3 kts (2 Bft) 95,65 %
21.04.2019 08:07 10,6 C 57 % 1023,8 hPa 0,0 l/m 1,9 kts (1 Bft) N-NO 14 1 min 0,6 UV-I 206 W/m 2,4 C 10,6 C 3,5 kts (2 Bft) 100,00 %
21.04.2019 08:06 10,7 C 54 % 1023,7 hPa 0,0 l/m 3,1 kts (1 Bft) N-NO 14 1 min 0,6 UV-I 206 W/m 1,8 C 10,7 C 3,5 kts (2 Bft) 95,65 %
21.04.2019 08:05 10,7 C 53 % 1023,8 hPa 0,0 l/m 2,1 kts (1 Bft) N-NO 14 1 min 0,6 UV-I 204 W/m 1,5 C 10,7 C 3,5 kts (2 Bft) 95,83 %
21.04.2019 08:04 10,7 C 52 % 1023,7 hPa 0,0 l/m 1,3 kts (1 Bft) N-NO 14 1 min 0,6 UV-I 202 W/m 1,3 C 10,7 C 1,7 kts (1 Bft) 100,00 %
21.04.2019 08:03 10,6 C 53 % 1023,7 hPa 0,0 l/m 1,7 kts (1 Bft) N-NO 14 1 min 0,6 UV-I 200 W/m 1,4 C 10,6 C 3,5 kts (2 Bft) 91,30 %
21.04.2019 08:02 10,6 C 52 % 1023,8 hPa 0,0 l/m 1,2 kts (1 Bft) N-NO 14 1 min 0,6 UV-I 199 W/m 1,2 C 10,6 C 1,7 kts (1 Bft) 100,00 %
21.04.2019 08:01 10,6 C 52 % 1023,7 hPa 0,0 l/m 1,5 kts (1 Bft) N-NO 14 1 min 0,6 UV-I 199 W/m 1,2 C 10,6 C 2,6 kts (1 Bft) 95,65 %
21.04.2019 08:00 10,5 C 52 % 1023,7 hPa 0,0 l/m 2,1 kts (1 Bft) N-NO 14 1 min 0,6 UV-I 197 W/m 1,1 C 10,5 C 3,5 kts (2 Bft) 100,00 %
21.04.2019 07:59 10,6 C 52 % 1023,8 hPa 0,0 l/m 1,4 kts (1 Bft) N-NO 14 1 min 0,5 UV-I 197 W/m 1,2 C 10,6 C 2,6 kts (1 Bft) 95,65 %
21.04.2019 07:58 10,5 C 55 % 1023,8 hPa 0,0 l/m 1,7 kts (1 Bft) N-NO 14 1 min 0,5 UV-I 195 W/m 1,8 C 10,5 C 2,6 kts (1 Bft) 100,00 %
21.04.2019 07:57 10,4 C 54 % 1023,8 hPa 0,0 l/m 1,8 kts (1 Bft) N-NO 14 1 min 0,5 UV-I 195 W/m 1,5 C 10,4 C 2,6 kts (1 Bft) 95,83 %
21.04.2019 07:56 10,4 C 55 % 1023,7 hPa 0,0 l/m 1,4 kts (1 Bft) N-NO 14 1 min 0,5 UV-I 193 W/m 1,8 C 10,4 C 2,6 kts (1 Bft) 95,65 %
21.04.2019 07:55 10,4 C 53 % 1023,8 hPa 0,0 l/m 1,0 kts (1 Bft) N-NO 14 1 min 0,5 UV-I 192 W/m 1,2 C 10,4 C 1,7 kts (1 Bft) 100,00 %
21.04.2019 07:54 10,3 C 53 % 1023,8 hPa 0,0 l/m 0,9 kts (1 Bft) N-NO 14 1 min 0,5 UV-I 190 W/m 1,1 C 10,3 C 1,7 kts (1 Bft) 96,15 %
21.04.2019 07:53 10,3 C 52 % 1023,8 hPa 0,0 l/m 0,2 kts (0 Bft) N-NO 14 1 min 0,5 UV-I 188 W/m 0,9 C 10,3 C 0,9 kts (1 Bft) 100,00 %
21.04.2019 07:52 10,3 C 53 % 1023,7 hPa 0,0 l/m 1,2 kts (1 Bft) N-NO 14 1 min 0,5 UV-I 185 W/m 1,1 C 10,3 C 1,7 kts (1 Bft) 96,55 %
21.04.2019 07:51 10,2 C 53 % 1023,8 hPa 0,0 l/m 1,5 kts (1 Bft) N-NO 14 1 min 0,5 UV-I 185 W/m 1,1 C 10,2 C 2,6 kts (1 Bft) 96,88 %
21.04.2019 07:50 10,2 C 54 % 1023,8 hPa 0,0 l/m 0,8 kts (1 Bft) N-NO 14 1 min 0,5 UV-I 183 W/m 1,3 C 10,2 C 1,7 kts (1 Bft) 100,00 %
21.04.2019 07:49 10,1 C 54 % 1023,8 hPa 0,0 l/m 1,4 kts (1 Bft) N-NO 14 1 min 0,0 UV-I 181 W/m 1,2 C 10,1 C 2,6 kts (1 Bft) 96,77 %
21.04.2019 07:48 10,1 C 54 % 1023,7 hPa 0,0 l/m 1,5 kts (1 Bft) N-NO 14 1 min 0,0 UV-I 178 W/m 1,2 C 10,1 C 2,6 kts (1 Bft) 93,33 %
21.04.2019 07:47 9,9 C 55 % 1023,7 hPa 0,0 l/m 1,6 kts (1 Bft) N-NO 14 1 min 0,0 UV-I 172 W/m 1,3 C 9,9 C 2,6 kts (1 Bft) 96,15 %
21.04.2019 07:46 9,8 C 57 % 1023,8 hPa 0,0 l/m 1,8 kts (1 Bft) N-NO 14 1 min 0,0 UV-I 162 W/m 1,7 C 9,8 C 2,6 kts (1 Bft) 100,00 %
21.04.2019 07:45 9,7 C 57 % 1023,8 hPa 0,0 l/m 1,6 kts (1 Bft) N-NO 14 1 min 0,0 UV-I 156 W/m 1,6 C 9,7 C 2,6 kts (1 Bft) 100,00 %
21.04.2019 07:44 9,6 C 65 % 1023,7 hPa 0,0 l/m 1,2 kts (1 Bft) N-NO 14 0 min 0,0 UV-I 151 W/m 3,4 C 9,6 C 1,7 kts (1 Bft) 100,00 %
21.04.2019 07:43 9,5 C 65 % 1023,8 hPa 0,0 l/m 1,3 kts (1 Bft) N-NO 14 0 min 0,0 UV-I 146 W/m 3,3 C 9,5 C 1,7 kts (1 Bft) 100,00 %
21.04.2019 07:42 9,4 C 64 % 1023,7 hPa 0,0 l/m 0,8 kts (1 Bft) N-NO 14 0 min 0,0 UV-I 142 W/m 2,9 C 9,4 C 1,7 kts (1 Bft) 100,00 %
21.04.2019 07:41 9,4 C 61 % 1023,7 hPa 0,0 l/m 1,2 kts (1 Bft) N-NO 14 0 min 0,0 UV-I 141 W/m 2,3 C 9,4 C 1,7 kts (1 Bft) 100,00 %
21.04.2019 07:40 9,3 C 64 % 1023,6 hPa 0,0 l/m 1,3 kts (1 Bft) N-NO 14 0 min 0,0 UV-I 139 W/m 2,8 C 9,3 C 2,6 kts (1 Bft) 100,00 %
21.04.2019 07:39 9,2 C 63 % 1023,6 hPa 0,0 l/m 1,6 kts (1 Bft) N-NO 14 0 min 0,0 UV-I 137 W/m 2,5 C 9,2 C 2,6 kts (1 Bft) 100,00 %
21.04.2019 07:38 9,1 C 60 % 1023,6 hPa 0,0 l/m 1,2 kts (1 Bft) N-NO 14 0 min 0,0 UV-I 137 W/m 1,8 C 9,1 C 1,7 kts (1 Bft) 100,00 %
21.04.2019 07:37 8,9 C 65 % 1023,6 hPa 0,0 l/m 0,2 kts (0 Bft) N-NO 14 0 min 0,0 UV-I 137 W/m 2,7 C 8,9 C 0,9 kts (1 Bft) 100,00 %
21.04.2019 07:36 8,8 C 66 % 1023,6 hPa 0,0 l/m 0,4 kts (0 Bft) N-NO 14 0 min 0,0 UV-I 137 W/m 2,8 C 8,8 C 0,9 kts (1 Bft) 100,00 %
21.04.2019 07:35 8,7 C 68 % 1023,6 hPa 0,0 l/m 0,3 kts (0 Bft) N-NO 14 0 min 0,0 UV-I 135 W/m 3,1 C 8,7 C 0,9 kts (1 Bft) 100,00 %
21.04.2019 07:34 8,6 C 69 % 1023,6 hPa 0,0 l/m 0,4 kts (0 Bft) N-NO 14 0 min 0,0 UV-I 125 W/m 3,2 C 8,6 C 1,7 kts (1 Bft) 100,00 %
21.04.2019 07:33 8,6 C 67 % 1023,6 hPa 0,0 l/m 0,3 kts (0 Bft) N-NO 14 0 min 0,0 UV-I 120 W/m 2,8 C 8,6 C 0,9 kts (1 Bft) 100,00 %
21.04.2019 07:32 8,6 C 66 % 1023,6 hPa 0,0 l/m 0,3 kts (0 Bft) N-NO 14 0 min 0,0 UV-I 114 W/m 2,6 C 8,6 C 0,9 kts (1 Bft) 100,00 %
21.04.2019 07:31 8,5 C 62 % 1023,6 hPa 0,0 l/m 0,4 kts (0 Bft) N-NO 14 0 min 0,0 UV-I 111 W/m 1,6 C 8,5 C 1,7 kts (1 Bft) 100,00 %
21.04.2019 07:30 8,4 C 64 % 1023,6 hPa 0,0 l/m 0,6 kts (1 Bft) N-NO 14 0 min 0,0 UV-I 107 W/m 2,0 C 8,4 C 1,7 kts (1 Bft) 100,00 %
21.04.2019 07:29 8,3 C 64 % 1023,6 hPa 0,0 l/m 0,1 kts (0 Bft) N-NO 14 0 min 0,0 UV-I 104 W/m 1,9 C 8,3 C 0,9 kts (1 Bft) 100,00 %
21.04.2019 07:28 8,2 C 64 % 1023,7 hPa 0,0 l/m 0,8 kts (1 Bft) N-NO 14 0 min 0,0 UV-I 98 W/m 1,8 C 8,2 C 1,7 kts (1 Bft) 100,00 %
21.04.2019 07:27 8,1 C 65 % 1023,7 hPa 0,0 l/m 1,4 kts (1 Bft) N-NO 14 0 min 0,0 UV-I 98 W/m 1,9 C 8,1 C 1,7 kts (1 Bft) 100,00 %
21.04.2019 07:26 8,0 C 66 % 1023,7 hPa 0,0 l/m 1,5 kts (1 Bft) N-NO 14 0 min 0,0 UV-I 98 W/m 2,0 C 8,0 C 2,6 kts (1 Bft) 95,83 %
21.04.2019 07:25 7,9 C 70 % 1023,6 hPa 0,0 l/m 1,3 kts (1 Bft) N-NO 14 0 min 0,0 UV-I 98 W/m 2,8 C 7,9 C 2,6 kts (1 Bft) 96,15 %
21.04.2019 07:24 7,9 C 64 % 1023,7 hPa 0,0 l/m 0,8 kts (1 Bft) N-NO 14 0 min 0,0 UV-I 98 W/m 1,5 C 7,9 C 1,7 kts (1 Bft) 100,00 %
21.04.2019 07:23 7,7 C 65 % 1023,6 hPa 0,0 l/m 1,9 kts (1 Bft) N-NO 14 0 min 0,0 UV-I 97 W/m 1,5 C 7,7 C 2,6 kts (1 Bft) 100,00 %
21.04.2019 07:22 7,5 C 66 % 1023,7 hPa 0,0 l/m 2,3 kts (1 Bft) N-NO 14 0 min 0,0 UV-I 91 W/m 1,6 C 7,5 C 2,6 kts (1 Bft) 100,00 %
21.04.2019 07:21 7,4 C 66 % 1023,7 hPa 0,0 l/m 1,9 kts (1 Bft) N-NO 14 0 min 0,0 UV-I 79 W/m 1,5 C 7,4 C 2,6 kts (1 Bft) 100,00 %
21.04.2019 07:20 7,3 C 67 % 1023,7 hPa 0,0 l/m 2,2 kts (1 Bft) N-NO 14 0 min 0,0 UV-I 58 W/m 1,6 C 7,3 C 2,6 kts (1 Bft) 100,00 %
21.04.2019 07:19 7,2 C 67 % 1023,7 hPa 0,0 l/m 2,2 kts (1 Bft) N-NO 14 0 min 0,0 UV-I 42 W/m 1,5 C 7,2 C 2,6 kts (1 Bft) 99,52 %
21.04.2019 07:18 7,0 C 67 % 1023,7 hPa 0,0 l/m 1,7 kts (1 Bft) N-NO 14 0 min 0,0 UV-I 39 W/m 1,3 C 7,0 C 1,7 kts (1 Bft) 100,00 %
21.04.2019 07:17 6,8 C 68 % 1023,7 hPa 0,0 l/m 3,0 kts (1 Bft) N-NO 14 0 min 0,0 UV-I 37 W/m 1,3 C 6,8 C 4,3 kts (2 Bft) 100,00 %
21.04.2019 07:16 6,6 C 69 % 1023,6 hPa 0,0 l/m 2,8 kts (1 Bft) N-NO 14 0 min 0,0 UV-I 37 W/m 1,3 C 6,6 C 3,5 kts (2 Bft) 100,00 %
21.04.2019 07:15 6,4 C 69 % 1023,7 hPa 0,0 l/m 2,2 kts (1 Bft) N-NO 14 0 min 0,0 UV-I 33 W/m 1,1 C 6,4 C 2,6 kts (1 Bft) 100,00 %
21.04.2019 07:14 6,2 C 70 % 1023,8 hPa 0,0 l/m 2,4 kts (1 Bft) N-NO 14 0 min 0,0 UV-I 32 W/m 1,1 C 6,2 C 3,5 kts (2 Bft) 100,00 %
21.04.2019 07:13 6,1 C 70 % 1023,7 hPa 0,0 l/m 2,1 kts (1 Bft) N-NO 14 0 min 0,0 UV-I 32 W/m 1,0 C 6,1 C 2,6 kts (1 Bft) 100,00 %
21.04.2019 07:12 6,1 C 71 % 1023,7 hPa 0,0 l/m 2,0 kts (1 Bft) N-NO 14 0 min 0,0 UV-I 32 W/m 1,2 C 6,1 C 2,6 kts (1 Bft) 100,00 %
21.04.2019 07:11 6,1 C 73 % 1023,7 hPa 0,0 l/m 1,7 kts (1 Bft) N-NO 14 0 min 0,0 UV-I 30 W/m 1,6 C 6,1 C 2,6 kts (1 Bft) 100,00 %
21.04.2019 07:10 6,1 C 70 % 1023,7 hPa 0,0 l/m 2,1 kts (1 Bft) N-NO 14 0 min 0,0 UV-I 30 W/m 1,0 C 6,1 C 2,6 kts (1 Bft) 100,00 %
21.04.2019 07:09 6,1 C 70 % 1023,7 hPa 0,0 l/m 1,5 kts (1 Bft) N-NO 14 0 min 0,0 UV-I 30 W/m 1,0 C 6,1 C 2,6 kts (1 Bft) 100,00 %
21.04.2019 07:08 5,9 C 70 % 1023,7 hPa 0,0 l/m 1,7 kts (1 Bft) N-NO 14 0 min 0,0 UV-I 30 W/m 0,9 C 5,9 C 2,6 kts (1 Bft) 100,00 %
21.04.2019 07:07 5,9 C 70 % 1023,7 hPa 0,0 l/m 2,3 kts (1 Bft) N-NO 14 0 min 0,0 UV-I 30 W/m 0,9 C 5,9 C 2,6 kts (1 Bft) 100,00 %
21.04.2019 07:06 5,9 C 70 % 1023,8 hPa 0,0 l/m 2,0 kts (1 Bft) N-NO 14 0 min 0,0 UV-I 30 W/m 0,9 C 5,9 C 2,6 kts (1 Bft) 100,00 %
21.04.2019 07:05 5,8 C 70 % 1023,7 hPa 0,0 l/m 1,9 kts (1 Bft) N-NO 14 0 min 0,0 UV-I 28 W/m 0,8 C 5,8 C 2,6 kts (1 Bft) 95,83 %
21.04.2019 07:04 5,8 C 70 % 1023,8 hPa 0,0 l/m 1,6 kts (1 Bft) N-NO 14 0 min 0,0 UV-I 28 W/m 0,8 C 5,8 C 2,6 kts (1 Bft) 95,65 %
21.04.2019 07:03 5,8 C 70 % 1023,8 hPa 0,0 l/m 2,1 kts (1 Bft) N-NO 14 0 min 0,0 UV-I 28 W/m 0,8 C 5,8 C 2,6 kts (1 Bft) 100,00 %
21.04.2019 07:02 5,8 C 70 % 1023,8 hPa 0,0 l/m 2,4 kts (1 Bft) N-NO 14 0 min 0,0 UV-I 28 W/m 0,8 C 5,8 C 3,5 kts (2 Bft) 100,00 %
21.04.2019 07:01 5,7 C 70 % 1023,8 hPa 0,0 l/m 2,8 kts (1 Bft) N-NO 14 0 min 0,0 UV-I 28 W/m 0,7 C 5,7 C 3,5 kts (2 Bft) 100,00 %
21.04.2019 07:00 5,6 C 70 % 1023,8 hPa 0,0 l/m 2,6 kts (1 Bft) N-NO 14 0 min 0,0 UV-I 28 W/m 0,6 C 5,6 C 3,5 kts (2 Bft) 100,00 %
21.04.2019 06:59 5,6 C 70 % 1023,8 hPa 0,0 l/m 3,0 kts (1 Bft) N-NO 14 0 min 0,0 UV-I 26 W/m 0,6 C 5,6 C 3,5 kts (2 Bft) 100,00 %
21.04.2019 06:58 5,5 C 71 % 1023,9 hPa 0,0 l/m 2,8 kts (1 Bft) N-NO 14 0 min 0,0 UV-I 26 W/m 0,7 C 5,5 C 3,5 kts (2 Bft) 100,00 %
21.04.2019 06:57 5,6 C 69 % 1023,8 hPa 0,0 l/m 3,0 kts (1 Bft) N-NO 14 0 min 0,0 UV-I 26 W/m 0,4 C 5,6 C 3,5 kts (2 Bft) 100,00 %
21.04.2019 06:56 5,6 C 70 % 1023,8 hPa 0,0 l/m 3,6 kts (2 Bft) N-NO 14 0 min 0,0 UV-I 26 W/m 0,6 C 5,4 C 4,3 kts (2 Bft) 100,00 %
21.04.2019 06:55 5,5 C 70 % 1023,8 hPa 0,0 l/m 4,0 kts (2 Bft) N-NO 15 0 min 0,0 UV-I 26 W/m 0,5 C 4,5 C 6,1 kts (2 Bft) 100,00 %
21.04.2019 06:54 5,4 C 70 % 1023,8 hPa 0,0 l/m 3,6 kts (2 Bft) N-NO 13 0 min 0,0 UV-I 26 W/m 0,4 C 5,2 C 4,3 kts (2 Bft) 95,65 %
21.04.2019 06:53 5,5 C 70 % 1023,8 hPa 0,0 l/m 3,7 kts (2 Bft) N-NO 13 0 min 0,0 UV-I 25 W/m 0,5 C 5,2 C 4,3 kts (2 Bft) 100,00 %
21.04.2019 06:52 5,6 C 69 % 1023,8 hPa 0,0 l/m 3,5 kts (2 Bft) N-NO 13 0 min 0,0 UV-I 25 W/m 0,4 C 5,6 C 4,3 kts (2 Bft) 100,00 %
21.04.2019 06:51 5,5 C 69 % 1023,8 hPa 0,0 l/m 3,4 kts (2 Bft) N-NO 13 0 min 0,0 UV-I 25 W/m 0,3 C 5,5 C 4,3 kts (2 Bft) 100,00 %
21.04.2019 06:50 5,4 C 69 % 1023,8 hPa 0,0 l/m 3,5 kts (2 Bft) N-NO 13 0 min 0,0 UV-I 25 W/m 0,2 C 5,3 C 4,3 kts (2 Bft) 100,00 %
21.04.2019 06:49 5,3 C 70 % 1023,8 hPa 0,0 l/m 3,5 kts (2 Bft) N-NO 13 0 min 0,0 UV-I 25 W/m 0,3 C 5,3 C 4,3 kts (2 Bft) 95,65 %
21.04.2019 06:48 5,3 C 70 % 1023,8 hPa 0,0 l/m 4,5 kts (2 Bft) N-NO 13 0 min 0,0 UV-I 25 W/m 0,3 C 3,6 C 7,0 kts (3 Bft) 100,00 %
21.04.2019 06:47 5,2 C 70 % 1023,9 hPa 0,0 l/m 3,7 kts (2 Bft) N-NO 14 0 min 0,0 UV-I 23 W/m 0,2 C 4,9 C 4,3 kts (2 Bft) 100,00 %
21.04.2019 06:46 5,2 C 70 % 1023,8 hPa 0,0 l/m 3,5 kts (2 Bft) N-NO 14 0 min 0,0 UV-I 23 W/m 0,2 C 5,2 C 4,3 kts (2 Bft) 100,00 %
21.04.2019 06:45 5,2 C 70 % 1023,8 hPa 0,0 l/m 3,6 kts (2 Bft) N-NO 14 0 min 0,0 UV-I 23 W/m 0,2 C 5,0 C 4,3 kts (2 Bft) 100,00 %
21.04.2019 06:44 5,2 C 70 % 1023,8 hPa 0,0 l/m 3,5 kts (2 Bft) N-NO 14 0 min 0,0 UV-I 23 W/m 0,2 C 5,2 C 4,3 kts (2 Bft) 100,00 %
21.04.2019 06:43 5,2 C 70 % 1023,8 hPa 0,0 l/m 3,6 kts (2 Bft) N-NO 14 0 min 0,0 UV-I 21 W/m 0,2 C 5,0 C 4,3 kts (2 Bft) 100,00 %
21.04.2019 06:42 5,1 C 70 % 1023,8 hPa 0,0 l/m 3,8 kts (2 Bft) N-NO 14 0 min 0,0 UV-I 21 W/m 0,1 C 4,6 C 4,3 kts (2 Bft) 100,00 %
21.04.2019 06:41 5,1 C 70 % 1023,8 hPa 0,0 l/m 3,4 kts (2 Bft) N-NO 14 0 min 0,0 UV-I 21 W/m 0,1 C 5,1 C 4,3 kts (2 Bft) 100,00 %
21.04.2019 06:40 5,1 C 70 % 1023,7 hPa 0,0 l/m 3,5 kts (2 Bft) N-NO 14 0 min 0,0 UV-I 21 W/m 0,1 C 5,1 C 4,3 kts (2 Bft) 100,00 %
21.04.2019 06:39 5,1 C 70 % 1023,8 hPa 0,0 l/m 3,5 kts (2 Bft) N-NO 14 0 min 0,0 UV-I 21 W/m 0,1 C 5,1 C 3,5 kts (2 Bft) 100,00 %
21.04.2019 06:38 5,1 C 71 % 1023,8 hPa 0,0 l/m 3,4 kts (2 Bft) N-NO 14 0 min 0,0 UV-I 21 W/m 0,3 C 5,1 C 3,5 kts (2 Bft) 100,00 %
21.04.2019 06:37 4,9 C 71 % 1023,7 hPa 0,0 l/m 3,3 kts (2 Bft) N-NO 14 0 min 0,0 UV-I 19 W/m 0,1 C 4,9 C 4,3 kts (2 Bft) 100,00 %
21.04.2019 06:36 4,9 C 71 % 1023,8 hPa 0,0 l/m 3,3 kts (2 Bft) N-NO 14 0 min 0,0 UV-I 19 W/m 0,1 C 4,9 C 4,3 kts (2 Bft) 100,00 %
21.04.2019 06:35 4,8 C 71 % 1023,7 hPa 0,0 l/m 3,3 kts (2 Bft) N-NO 14 0 min 0,0 UV-I 19 W/m -0,0 C 4,8 C 3,5 kts (2 Bft) 100,00 %
21.04.2019 06:34 4,8 C 71 % 1023,8 hPa 0,0 l/m 3,3 kts (2 Bft) N-NO 14 0 min 0,0 UV-I 19 W/m -0,0 C 4,8 C 3,5 kts (2 Bft) 100,00 %
21.04.2019 06:33 4,8 C 72 % 1023,8 hPa 0,0 l/m 3,2 kts (2 Bft) N-NO 14 0 min 0,0 UV-I 18 W/m 0,2 C 4,8 C 3,5 kts (2 Bft) 100,00 %
21.04.2019 06:32 4,7 C 72 % 1023,7 hPa 0,0 l/m 3,3 kts (2 Bft) N-NO 14 0 min 0,0 UV-I 18 W/m 0,1 C 4,7 C 3,5 kts (2 Bft) 100,00 %
21.04.2019 06:31 4,6 C 72 % 1023,8 hPa 0,0 l/m 3,0 kts (1 Bft) N-NO 14 0 min 0,0 UV-I 18 W/m -0,0 C 4,6 C 3,5 kts (2 Bft) 100,00 %
21.04.2019 06:30 4,6 C 72 % 1023,7 hPa 0,0 l/m 2,8 kts (1 Bft) N-NO 14 0 min 0,0 UV-I 18 W/m -0,0 C 4,6 C 3,5 kts (2 Bft) 95,65 %
21.04.2019 06:29 4,6 C 72 % 1023,8 hPa 0,0 l/m 2,9 kts (1 Bft) N-NO 14 0 min 0,0 UV-I 16 W/m -0,0 C 4,6 C 3,5 kts (2 Bft) 100,00 %
21.04.2019 06:28 4,6 C 72 % 1023,7 hPa 0,0 l/m 2,8 kts (1 Bft) N-NO 14 0 min 0,0 UV-I 16 W/m -0,0 C 4,6 C 3,5 kts (2 Bft) 95,83 %
21.04.2019 06:27 4,6 C 72 % 1023,8 hPa 0,0 l/m 2,5 kts (1 Bft) N-NO 14 0 min 0,0 UV-I 16 W/m -0,0 C 4,6 C 2,6 kts (1 Bft) 100,00 %
21.04.2019 06:26 4,7 C 72 % 1023,8 hPa 0,0 l/m 2,7 kts (1 Bft) N-NO 14 0 min 0,0 UV-I 16 W/m 0,1 C 4,7 C 3,5 kts (2 Bft) 100,00 %
21.04.2019 06:25 4,7 C 71 % 1023,7 hPa 0,0 l/m 2,9 kts (1 Bft) N-NO 14 0 min 0,0 UV-I 16 W/m -0,1 C 4,7 C 3,5 kts (2 Bft) 100,00 %
21.04.2019 06:24 4,7 C 71 % 1023,7 hPa 0,0 l/m 2,9 kts (1 Bft) N-NO 14 0 min 0,0 UV-I 14 W/m -0,1 C 4,7 C 3,5 kts (2 Bft) 100,00 %
21.04.2019 06:23 4,8 C 71 % 1023,7 hPa 0,0 l/m 2,8 kts (1 Bft) N-NO 14 0 min 0,0 UV-I 14 W/m -0,0 C 4,8 C 3,5 kts (2 Bft) 100,00 %
21.04.2019 06:22 4,8 C 71 % 1023,8 hPa 0,0 l/m 3,1 kts (2 Bft) N-NO 14 0 min 0,0 UV-I 14 W/m -0,0 C 4,8 C 3,5 kts (2 Bft) 100,00 %
21.04.2019 06:21 4,7 C 71 % 1023,8 hPa 0,0 l/m 3,2 kts (2 Bft) N-NO 14 0 min 0,0 UV-I 14 W/m -0,1 C 4,7 C 3,5 kts (2 Bft) 99,51 %
21.04.2019 06:20 4,7 C 72 % 1023,8 hPa 0,0 l/m 2,8 kts (1 Bft) N-NO 14 0 min 0,0 UV-I 12 W/m 0,1 C 4,7 C 3,5 kts (2 Bft) 95,65 %
21.04.2019 06:19 4,7 C 72 % 1023,7 hPa 0,0 l/m 2,9 kts (1 Bft) N-NO 14 0 min 0,0 UV-I 12 W/m 0,1 C 4,7 C 3,5 kts (2 Bft) 100,00 %
21.04.2019 06:18 4,7 C 72 % 1023,8 hPa 0,0 l/m 2,9 kts (1 Bft) N-NO 14 0 min 0,0 UV-I 12 W/m 0,1 C 4,7 C 3,5 kts (2 Bft) 100,00 %
21.04.2019 06:17 4,6 C 72 % 1023,7 hPa 0,0 l/m 2,6 kts (1 Bft) N-NO 14 0 min 0,0 UV-I 12 W/m -0,0 C 4,6 C 3,5 kts (2 Bft) 95,65 %
21.04.2019 06:16 4,6 C 73 % 1023,7 hPa 0,0 l/m 3,1 kts (2 Bft) N-NO 14 0 min 0,0 UV-I 11 W/m 0,2 C 4,6 C 3,5 kts (2 Bft) 100,00 %
21.04.2019 06:15 4,6 C 73 % 1023,7 hPa 0,0 l/m 2,8 kts (1 Bft) N-NO 14 0 min 0,0 UV-I 11 W/m 0,2 C 4,6 C 3,5 kts (2 Bft) 100,00 %
21.04.2019 06:14 4,5 C 73 % 1023,7 hPa 0,0 l/m 2,9 kts (1 Bft) N-NO 14 0 min 0,0 UV-I 11 W/m 0,1 C 4,5 C 3,5 kts (2 Bft) 100,00 %
21.04.2019 06:13 4,4 C 73 % 1023,8 hPa 0,0 l/m 3,0 kts (1 Bft) N-NO 14 0 min 0,0 UV-I 11 W/m -0,0 C 4,4 C 3,5 kts (2 Bft) 97,56 %
21.04.2019 06:12 4,4 C 73 % 1023,8 hPa 0,0 l/m 2,8 kts (1 Bft) N-NO 14 0 min 0,0 UV-I 9 W/m -0,0 C 4,4 C 3,5 kts (2 Bft) 100,00 %
21.04.2019 06:11 4,3 C 74 % 1023,7 hPa 0,0 l/m 2,6 kts (1 Bft) N-NO 14 0 min 0,0 UV-I 9 W/m 0,1 C 4,3 C 3,5 kts (2 Bft) 100,00 %
21.04.2019 06:10 4,2 C 74 % 1023,7 hPa 0,0 l/m 2,5 kts (1 Bft) N-NO 14 0 min 0,0 UV-I 9 W/m -0,0 C 4,2 C 2,6 kts (1 Bft) 100,00 %
21.04.2019 06:09 4,2 C 73 % 1023,7 hPa 0,0 l/m 2,4 kts (1 Bft) N-NO 14 0 min 0,0 UV-I 7 W/m -0,2 C 4,2 C 2,6 kts (1 Bft) 100,00 %
21.04.2019 06:08 4,1 C 73 % 1023,7 hPa 0,0 l/m 2,5 kts (1 Bft) N-NO 14 0 min 0,0 UV-I 7 W/m -0,3 C 4,1 C 2,6 kts (1 Bft) 100,00 %
21.04.2019 06:07 4,1 C 73 % 1023,7 hPa 0,0 l/m 2,4 kts (1 Bft) N-NO 14 0 min 0,0 UV-I 7 W/m -0,3 C 4,1 C 2,6 kts (1 Bft) 100,00 %
21.04.2019 06:06 4,1 C 74 % 1023,6 hPa 0,0 l/m 2,6 kts (1 Bft) N-NO 14 0 min 0,0 UV-I 7 W/m -0,1 C 4,1 C 3,5 kts (2 Bft) 95,65 %
21.04.2019 06:05 4,0 C 74 % 1023,5 hPa 0,0 l/m 2,5 kts (1 Bft) N-NO 14 0 min 0,0 UV-I 5 W/m -0,2 C 4,0 C 2,6 kts (1 Bft) 100,00 %
21.04.2019 06:04 4,0 C 74 % 1023,6 hPa 0,0 l/m 2,6 kts (1 Bft) N-NO 14 0 min 0,0 UV-I 5 W/m -0,2 C 4,0 C 3,5 kts (2 Bft) 100,00 %
21.04.2019 06:03 3,9 C 74 % 1023,6 hPa 0,0 l/m 2,9 kts (1 Bft) N-NO 14 0 min 0,0 UV-I 5 W/m -0,3 C 3,9 C 3,5 kts (2 Bft) 100,00 %
21.04.2019 06:02 3,9 C 74 % 1023,7 hPa 0,0 l/m 3,1 kts (1 Bft) N-NO 14 0 min 0,0 UV-I 5 W/m -0,3 C 3,9 C 3,5 kts (2 Bft) 100,00 %
21.04.2019 06:01 3,9 C 74 % 1023,6 hPa 0,0 l/m 3,3 kts (2 Bft) N-NO 14 0 min 0,0 UV-I 0 W/m -0,3 C 3,9 C 3,5 kts (2 Bft) 100,00 %
21.04.2019 06:00 4,0 C 74 % 1023,6 hPa 0,0 l/m 3,3 kts (2 Bft) N-NO 14 0 min 0,0 UV-I 0 W/m -0,2 C 4,0 C 3,5 kts (2 Bft) 100,00 %
21.04.2019 05:59 4,1 C 73 % 1023,6 hPa 0,0 l/m 3,5 kts (2 Bft) N-NO 14 0 min 0,0 UV-I 0 W/m -0,3 C 4,0 C 4,3 kts (2 Bft) 96,15 %
21.04.2019 05:58 4,1 C 73 % 1023,5 hPa 0,0 l/m 3,8 kts (2 Bft) N-NO 14 0 min 0,0 UV-I 0 W/m -0,3 C 3,6 C 4,3 kts (2 Bft) 97,87 %
21.04.2019 05:57 4,2 C 73 % 1023,6 hPa 0,0 l/m 3,7 kts (2 Bft) N-NO 14 0 min 0,0 UV-I 0 W/m -0,2 C 3,8 C 4,3 kts (2 Bft) 99,63 %
21.04.2019 05:56 4,3 C 73 % 1023,6 hPa 0,0 l/m 3,6 kts (2 Bft) N-NO 14 0 min 0,0 UV-I 0 W/m -0,1 C 4,1 C 4,3 kts (2 Bft) 100,00 %
21.04.2019 05:55 4,3 C 73 % 1023,6 hPa 0,0 l/m 3,6 kts (2 Bft) N-NO 14 0 min 0,0 UV-I 0 W/m -0,1 C 4,1 C 4,3 kts (2 Bft) 100,00 %
21.04.2019 05:54 4,2 C 73 % 1023,6 hPa 0,0 l/m 3,6 kts (2 Bft) N-NO 14 0 min 0,0 UV-I 0 W/m -0,2 C 4,0 C 4,3 kts (2 Bft) 100,00 %
21.04.2019 05:53 4,2 C 73 % 1023,6 hPa 0,0 l/m 3,7 kts (2 Bft) N-NO 14 0 min 0,0 UV-I 0 W/m -0,2 C 3,8 C 4,3 kts (2 Bft) 100,00 %
21.04.2019 05:52 4,1 C 73 % 1023,6 hPa 0,0 l/m 3,2 kts (2 Bft) N-NO 14 0 min 0,0 UV-I 0 W/m -0,3 C 4,1 C 3,5 kts (2 Bft) 100,00 %
21.04.2019 05:51 4,1 C 73 % 1023,6 hPa 0,0 l/m 3,2 kts (2 Bft) N-NO 14 0 min 0,0 UV-I 0 W/m -0,3 C 4,1 C 3,5 kts (2 Bft) 100,00 %
21.04.2019 05:50 4,2 C 72 % 1023,6 hPa 0,0 l/m 3,6 kts (2 Bft) N-NO 14 0 min 0,0 UV-I 0 W/m -0,4 C 4,0 C 4,3 kts (2 Bft) 100,00 %
21.04.2019 05:49 4,3 C 72 % 1023,6 hPa 0,0 l/m 3,7 kts (2 Bft) N-NO 14 0 min 0,0 UV-I 0 W/m -0,3 C 3,9 C 4,3 kts (2 Bft) 100,00 %
21.04.2019 05:48 4,4 C 71 % 1023,6 hPa 0,0 l/m 3,7 kts (2 Bft) N-NO 14 0 min 0,0 UV-I 0 W/m -0,4 C 4,1 C 4,3 kts (2 Bft) 100,00 %
21.04.2019 05:47 4,6 C 71 % 1023,5 hPa 0,0 l/m 3,5 kts (2 Bft) N-NO 14 0 min 0,0 UV-I 0 W/m -0,2 C 4,6 C 3,5 kts (2 Bft) 100,00 %
21.04.2019 05:46 4,7 C 70 % 1023,5 hPa 0,0 l/m 3,6 kts (2 Bft) N-NO 14 0 min 0,0 UV-I 0 W/m -0,3 C 4,5 C 4,3 kts (2 Bft) 100,00 %
21.04.2019 05:45 4,8 C 70 % 1023,6 hPa 0,0 l/m 3,5 kts (2 Bft) N-NO 14 0 min 0,0 UV-I 0 W/m -0,2 C 4,8 C 3,5 kts (2 Bft) 100,00 %
21.04.2019 05:44 4,9 C 70 % 1023,6 hPa 0,0 l/m 3,5 kts (2 Bft) N-NO 14 0 min 0,0 UV-I 0 W/m -0,1 C 4,9 C 4,3 kts (2 Bft) 100,00 %
21.04.2019 05:43 5,2 C 69 % 1023,5 hPa 0,0 l/m 3,4 kts (2 Bft) N-NO 14 0 min 0,0 UV-I 0 W/m -0,0 C 5,2 C 4,3 kts (2 Bft) 100,00 %
21.04.2019 05:42 5,3 C 69 % 1023,6 hPa 0,0 l/m 3,6 kts (2 Bft) N-NO 14 0 min 0,0 UV-I 0 W/m 0,1 C 5,1 C 4,3 kts (2 Bft) 100,00 %
21.04.2019 05:41 5,4 C 69 % 1023,6 hPa 0,0 l/m 3,5 kts (2 Bft) N-NO 14 0 min 0,0 UV-I 0 W/m 0,2 C 5,3 C 4,3 kts (2 Bft) 100,00 %
21.04.2019 05:40 5,3 C 69 % 1023,6 hPa 0,0 l/m 3,8 kts (2 Bft) N-NO 14 0 min 0,0 UV-I 0 W/m 0,1 C 4,7 C 4,3 kts (2 Bft) 100,00 %
21.04.2019 05:39 5,3 C 69 % 1023,6 hPa 0,0 l/m 4,0 kts (2 Bft) N-NO 14 0 min 0,0 UV-I 0 W/m 0,1 C 4,3 C 4,3 kts (2 Bft) 95,65 %
21.04.2019 05:38 5,2 C 69 % 1023,6 hPa 0,0 l/m 4,0 kts (2 Bft) N-NO 14 0 min 0,0 UV-I 0 W/m -0,0 C 4,3 C 4,3 kts (2 Bft) 100,00 %
21.04.2019 05:37 5,2 C 69 % 1023,6 hPa 0,0 l/m 4,2 kts (2 Bft) N-NO 14 0 min 0,0 UV-I 0 W/m -0,0 C 4,1 C 4,3 kts (2 Bft) 100,00 %
21.04.2019 05:36 5,2 C 70 % 1023,7 hPa 0,0 l/m 3,8 kts (2 Bft) N-NO 14 0 min 0,0 UV-I 0 W/m 0,2 C 4,7 C 4,3 kts (2 Bft) 100,00 %
21.04.2019 05:35 5,1 C 70 % 1023,7 hPa 0,0 l/m 3,8 kts (2 Bft) N-NO 14 0 min 0,0 UV-I 0 W/m 0,1 C 4,6 C 4,3 kts (2 Bft) 100,00 %
21.04.2019 05:34 5,1 C 70 % 1023,6 hPa 0,0 l/m 3,7 kts (2 Bft) N-NO 14 0 min 0,0 UV-I 0 W/m 0,1 C 4,7 C 4,3 kts (2 Bft) 100,00 %
21.04.2019 05:33 5,1 C 70 % 1023,6 hPa 0,0 l/m 3,5 kts (2 Bft) N-NO 14 0 min 0,0 UV-I 0 W/m 0,1 C 5,0 C 4,3 kts (2 Bft) 100,00 %
21.04.2019 05:32 5,0 C 70 % 1023,7 hPa 0,0 l/m 3,9 kts (2 Bft) N-NO 14 0 min 0,0 UV-I 0 W/m -0,0 C 4,3 C 4,3 kts (2 Bft) 100,00 %
21.04.2019 05:31 5,0 C 70 % 1023,7 hPa 0,0 l/m 3,8 kts (2 Bft) N-NO 14 0 min 0,0 UV-I 0 W/m -0,0 C 4,5 C 4,3 kts (2 Bft) 100,00 %
21.04.2019 05:30 5,0 C 70 % 1023,7 hPa 0,0 l/m 3,5 kts (2 Bft) N-NO 14 0 min 0,0 UV-I 0 W/m -0,0 C 5,0 C 3,5 kts (2 Bft) 100,00 %
21.04.2019 05:29 4,9 C 69 % 1023,7 hPa 0,0 l/m 3,8 kts (2 Bft) N-NO 14 0 min 0,0 UV-I 0 W/m -0,3 C 4,4 C 4,3 kts (2 Bft) 100,00 %
21.04.2019 05:28 5,0 C 69 % 1023,7 hPa 0,0 l/m 3,7 kts (2 Bft) N-NO 14 0 min 0,0 UV-I 0 W/m -0,2 C 4,7 C 4,3 kts (2 Bft) 100,00 %
21.04.2019 05:27 5,1 C 69 % 1023,8 hPa 0,0 l/m 3,6 kts (2 Bft) N-NO 14 0 min 0,0 UV-I 0 W/m -0,1 C 4,9 C 4,3 kts (2 Bft) 95,65 %
21.04.2019 05:26 5,2 C 69 % 1023,7 hPa 0,0 l/m 3,6 kts (2 Bft) N-NO 14 0 min 0,0 UV-I 0 W/m -0,0 C 5,0 C 4,3 kts (2 Bft) 100,00 %
21.04.2019 05:25 5,3 C 68 % 1023,7 hPa 0,0 l/m 3,2 kts (2 Bft) N-NO 14 0 min 0,0 UV-I 0 W/m -0,1 C 5,3 C 3,5 kts (2 Bft) 100,00 %
21.04.2019 05:24 5,4 C 68 % 1023,8 hPa 0,0 l/m 3,5 kts (2 Bft) N-NO 14 0 min 0,0 UV-I 0 W/m -0,0 C 5,4 C 4,3 kts (2 Bft) 100,00 %
21.04.2019 05:23 5,5 C 68 % 1023,7 hPa 0,0 l/m 3,5 kts (2 Bft) N-NO 14 0 min 0,0 UV-I 0 W/m 0,1 C 5,5 C 4,3 kts (2 Bft) 100,00 %
21.04.2019 05:22 5,6 C 68 % 1023,7 hPa 0,0 l/m 3,6 kts (2 Bft) N-NO 14 0 min 0,0 UV-I 0 W/m 0,2 C 5,4 C 4,3 kts (2 Bft) 100,00 %
21.04.2019 05:20 5,7 C 67 % 1023,8 hPa 0,0 l/m 3,5 kts (2 Bft) N-NO 14 0 min 0,0 UV-I 0 W/m 0,1 C 5,7 C 3,5 kts (2 Bft) 100,00 %
21.04.2019 05:19 5,7 C 67 % 1023,8 hPa 0,0 l/m 3,6 kts (2 Bft) N-NO 14 0 min 0,0 UV-I 0 W/m 0,1 C 5,6 C 4,3 kts (2 Bft) 100,00 %
21.04.2019 05:18 5,7 C 67 % 1023,8 hPa 0,0 l/m 3,3 kts (2 Bft) N-NO 14 0 min 0,0 UV-I 0 W/m 0,1 C 5,7 C 3,5 kts (2 Bft) 100,00 %
21.04.2019 05:17 5,8 C 66 % 1023,8 hPa 0,0 l/m 3,3 kts (2 Bft) N-NO 14 0 min 0,0 UV-I 0 W/m -0,0 C 5,8 C 3,5 kts (2 Bft) 100,00 %
21.04.2019 05:16 5,9 C 66 % 1023,8 hPa 0,0 l/m 3,3 kts (2 Bft) N-NO 14 0 min 0,0 UV-I 0 W/m 0,0 C 5,9 C 3,5 kts (2 Bft) 100,00 %
21.04.2019 05:15 5,9 C 66 % 1023,8 hPa 0,0 l/m 2,8 kts (1 Bft) N-NO 14 0 min 0,0 UV-I 0 W/m 0,0 C 5,9 C 3,5 kts (2 Bft) 100,00 %
21.04.2019 05:14 5,9 C 67 % 1023,7 hPa 0,0 l/m 2,7 kts (1 Bft) N-NO 14 0 min 0,0 UV-I 0 W/m 0,3 C 5,9 C 3,5 kts (2 Bft) 100,00 %
21.04.2019 05:13 5,9 C 66 % 1023,7 hPa 0,0 l/m 2,6 kts (1 Bft) N-NO 14 0 min 0,0 UV-I 0 W/m 0,0 C 5,9 C 3,5 kts (2 Bft) 100,00 %
21.04.2019 05:12 5,9 C 67 % 1023,7 hPa 0,0 l/m 2,5 kts (1 Bft) N-NO 14 0 min 0,0 UV-I 0 W/m 0,3 C 5,9 C 2,6 kts (1 Bft) 98,31 %
21.04.2019 05:10 5,9 C 67 % 1023,8 hPa 0,0 l/m 2,6 kts (1 Bft) N-NO 14 0 min 0,0 UV-I 0 W/m 0,3 C 5,9 C 2,6 kts (1 Bft) 95,65 %
21.04.2019 05:09 5,8 C 67 % 1023,8 hPa 0,0 l/m 2,5 kts (1 Bft) N-NO 14 0 min 0,0 UV-I 0 W/m 0,2 C 5,8 C 2,6 kts (1 Bft) 96,30 %
21.04.2019 05:08 5,8 C 67 % 1023,7 hPa 0,0 l/m 2,3 kts (1 Bft) N-NO 14 0 min 0,0 UV-I 0 W/m 0,2 C 5,8 C 2,6 kts (1 Bft) 100,00 %
21.04.2019 05:07 5,8 C 67 % 1023,7 hPa 0,0 l/m 2,3 kts (1 Bft) N-NO 14 0 min 0,0 UV-I 0 W/m 0,2 C 5,8 C 2,6 kts (1 Bft) 100,00 %
21.04.2019 05:05 5,8 C 67 % 1023,8 hPa 0,0 l/m 2,1 kts (1 Bft) N-NO 14 0 min 0,0 UV-I 0 W/m 0,2 C 5,8 C 2,6 kts (1 Bft) 100,00 %
21.04.2019 05:04 5,8 C 67 % 1023,8 hPa 0,0 l/m 1,6 kts (1 Bft) N-NO 14 0 min 0,0 UV-I 0 W/m 0,2 C 5,8 C 1,7 kts (1 Bft) 100,00 %
21.04.2019 05:03 5,8 C 67 % 1023,8 hPa 0,0 l/m 1,9 kts (1 Bft) N-NO 14 0 min 0,0 UV-I 0 W/m 0,2 C 5,8 C 2,6 kts (1 Bft) 100,00 %
21.04.2019 05:02 5,8 C 67 % 1023,8 hPa 0,0 l/m 1,9 kts (1 Bft) N-NO 14 0 min 0,0 UV-I 0 W/m 0,2 C 5,8 C 2,6 kts (1 Bft) 95,83 %
21.04.2019 05:01 5,8 C 67 % 1023,8 hPa 0,0 l/m 1,7 kts (1 Bft) N-NO 14 0 min 0,0 UV-I 0 W/m 0,2 C 5,8 C 2,6 kts (1 Bft) 100,00 %
21.04.2019 05:00 5,7 C 67 % 1023,9 hPa 0,0 l/m 1,9 kts (1 Bft) N-NO 14 0 min 0,0 UV-I 0 W/m 0,1 C 5,7 C 2,6 kts (1 Bft) 100,00 %
21.04.2019 04:59 5,7 C 67 % 1023,9 hPa 0,0 l/m 1,8 kts (1 Bft) N-NO 14 0 min 0,0 UV-I 0 W/m 0,1 C 5,7 C 2,6 kts (1 Bft) 100,00 %
21.04.2019 04:58 5,7 C 67 % 1023,8 hPa 0,0 l/m 1,3 kts (1 Bft) N-NO 14 0 min 0,0 UV-I 0 W/m 0,1 C 5,7 C 1,7 kts (1 Bft) 100,00 %
21.04.2019 04:57 5,7 C 67 % 1023,8 hPa 0,0 l/m 1,2 kts (1 Bft) N-NO 14 0 min 0,0 UV-I 0 W/m 0,1 C 5,7 C 1,7 kts (1 Bft) 100,00 %
21.04.2019 04:56 5,7 C 67 % 1023,8 hPa 0,0 l/m 1,2 kts (1 Bft) N-NO 14 0 min 0,0 UV-I 0 W/m 0,1 C 5,7 C 1,7 kts (1 Bft) 95,65 %
21.04.2019 04:55 5,7 C 68 % 1023,8 hPa 0,0 l/m 1,6 kts (1 Bft) N-NO 14 0 min 0,0 UV-I 0 W/m 0,3 C 5,7 C 1,7 kts (1 Bft) 100,00 %
21.04.2019 04:54 5,6 C 68 % 1023,8 hPa 0,0 l/m 1,3 kts (1 Bft) N-NO 14 0 min 0,0 UV-I 0 W/m 0,2 C 5,6 C 1,7 kts (1 Bft) 96,15 %
21.04.2019 04:53 5,6 C 68 % 1023,8 hPa 0,0 l/m 1,6 kts (1 Bft) N-NO 14 0 min 0,0 UV-I 0 W/m 0,2 C 5,6 C 2,6 kts (1 Bft) 100,00 %
21.04.2019 04:52 5,6 C 68 % 1023,8 hPa 0,0 l/m 1,3 kts (1 Bft) N-NO 14 0 min 0,0 UV-I 0 W/m 0,2 C 5,6 C 1,7 kts (1 Bft) 100,00 %
21.04.2019 04:51 5,5 C 68 % 1023,8 hPa 0,0 l/m 1,2 kts (1 Bft) N-NO 14 0 min 0,0 UV-I 0 W/m 0,1 C 5,5 C 1,7 kts (1 Bft) 100,00 %
21.04.2019 04:50 5,4 C 69 % 1023,9 hPa 0,0 l/m 1,3 kts (1 Bft) N-NO 14 0 min 0,0 UV-I 0 W/m 0,2 C 5,4 C 2,6 kts (1 Bft) 100,00 %
21.04.2019 04:49 5,4 C 69 % 1023,8 hPa 0,0 l/m 2,1 kts (1 Bft) N-NO 14 0 min 0,0 UV-I 0 W/m 0,2 C 5,4 C 2,6 kts (1 Bft) 100,00 %
21.04.2019 04:48 5,4 C 69 % 1023,9 hPa 0,0 l/m 2,1 kts (1 Bft) N-NO 14 0 min 0,0 UV-I 0 W/m 0,2 C 5,4 C 2,6 kts (1 Bft) 100,00 %
21.04.2019 04:47 5,3 C 69 % 1023,8 hPa 0,0 l/m 2,3 kts (1 Bft) N-NO 14 0 min 0,0 UV-I 0 W/m 0,1 C 5,3 C 2,6 kts (1 Bft) 100,00 %
21.04.2019 04:46 5,4 C 69 % 1023,9 hPa 0,0 l/m 2,3 kts (1 Bft) N-NO 14 0 min 0,0 UV-I 0 W/m 0,2 C 5,4 C 2,6 kts (1 Bft) 100,00 %
21.04.2019 04:45 5,4 C 69 % 1023,9 hPa 0,0 l/m 2,2 kts (1 Bft) N-NO 14 0 min 0,0 UV-I 0 W/m 0,2 C 5,4 C 2,6 kts (1 Bft) 100,00 %
21.04.2019 04:44 5,3 C 69 % 1023,9 hPa 0,0 l/m 1,9 kts (1 Bft) N-NO 14 0 min 0,0 UV-I 0 W/m 0,1 C 5,3 C 2,6 kts (1 Bft) 100,00 %
21.04.2019 04:43 5,2 C 70 % 1024,0 hPa 0,0 l/m 2,4 kts (1 Bft) N-NO 14 0 min 0,0 UV-I 0 W/m 0,2 C 5,2 C 2,6 kts (1 Bft) 100,00 %
21.04.2019 04:42 5,2 C 69 % 1023,9 hPa 0,0 l/m 2,3 kts (1 Bft) N-NO 14 0 min 0,0 UV-I 0 W/m -0,0 C 5,2 C 2,6 kts (1 Bft) 100,00 %
21.04.2019 04:41 5,3 C 69 % 1023,9 hPa 0,0 l/m 2,6 kts (1 Bft) N-NO 14 0 min 0,0 UV-I 0 W/m 0,1 C 5,3 C 3,5 kts (2 Bft) 100,00 %
21.04.2019 04:40 5,4 C 69 % 1024,0 hPa 0,0 l/m 2,6 kts (1 Bft) N-NO 14 0 min 0,0 UV-I 0 W/m 0,2 C 5,4 C 3,5 kts (2 Bft) 100,00 %
21.04.2019 04:39 5,4 C 69 % 1024,0 hPa 0,0 l/m 2,5 kts (1 Bft) N-NO 14 0 min 0,0 UV-I 0 W/m 0,2 C 5,4 C 2,6 kts (1 Bft) 100,00 %
21.04.2019 04:38 5,5 C 68 % 1024,0 hPa 0,0 l/m 2,3 kts (1 Bft) N-NO 14 0 min 0,0 UV-I 0 W/m 0,1 C 5,5 C 2,6 kts (1 Bft) 100,00 %
21.04.2019 04:37 5,6 C 68 % 1024,0 hPa 0,0 l/m 2,4 kts (1 Bft) N-NO 14 0 min 0,0 UV-I 0 W/m 0,2 C 5,6 C 3,5 kts (2 Bft) 100,00 %
21.04.2019 04:36 5,6 C 67 % 1024,1 hPa 0,0 l/m 2,7 kts (1 Bft) N-NO 14 0 min 0,0 UV-I 0 W/m -0,0 C 5,6 C 3,5 kts (2 Bft) 100,00 %
21.04.2019 04:35 5,7 C 67 % 1024,0 hPa 0,0 l/m 2,9 kts (1 Bft) N-NO 14 0 min 0,0 UV-I 0 W/m 0,1 C 5,7 C 3,5 kts (2 Bft) 100,00 %
21.04.2019 04:34 5,8 C 67 % 1024,0 hPa 0,0 l/m 2,9 kts (1 Bft) N-NO 14 0 min 0,0 UV-I 0 W/m 0,2 C 5,8 C 3,5 kts (2 Bft) 100,00 %
21.04.2019 04:33 5,9 C 67 % 1024,1 hPa 0,0 l/m 3,0 kts (1 Bft) N-NO 14 0 min 0,0 UV-I 0 W/m 0,3 C 5,9 C 3,5 kts (2 Bft) 99,72 %
21.04.2019 04:32 5,9 C 67 % 1024,1 hPa 0,0 l/m 3,2 kts (2 Bft) N-NO 14 0 min 0,0 UV-I 0 W/m 0,3 C 5,9 C 3,5 kts (2 Bft) 100,00 %
21.04.2019 04:31 5,9 C 67 % 1024,1 hPa 0,0 l/m 3,5 kts (2 Bft) N-NO 14 0 min 0,0 UV-I 0 W/m 0,3 C 5,9 C 3,5 kts (2 Bft) 100,00 %
21.04.2019 04:30 5,9 C 67 % 1024,1 hPa 0,0 l/m 3,4 kts (2 Bft) N-NO 14 0 min 0,0 UV-I 0 W/m 0,3 C 5,9 C 3,5 kts (2 Bft) 100,00 %
21.04.2019 04:29 5,9 C 67 % 1024,1 hPa 0,0 l/m 3,5 kts (2 Bft) N-NO 14 0 min 0,0 UV-I 0 W/m 0,3 C 5,8 C 4,3 kts (2 Bft) 100,00 %
21.04.2019 04:28 6,0 C 67 % 1024,1 hPa 0,0 l/m 3,7 kts (2 Bft) N-NO 14 0 min 0,0 UV-I 0 W/m 0,3 C 5,6 C 4,3 kts (2 Bft) 100,00 %
21.04.2019 04:27 6,0 C 67 % 1024,1 hPa 0,0 l/m 3,6 kts (2 Bft) N-NO 14 0 min 0,0 UV-I 0 W/m 0,3 C 5,8 C 4,3 kts (2 Bft) 100,00 %
21.04.2019 04:26 6,0 C 67 % 1024,1 hPa 0,0 l/m 3,4 kts (2 Bft) N-NO 14 0 min 0,0 UV-I 0 W/m 0,3 C 6,0 C 3,5 kts (2 Bft) 100,00 %
21.04.2019 04:25 6,0 C 67 % 1024,1 hPa 0,0 l/m 3,3 kts (2 Bft) N-NO 14 0 min 0,0 UV-I 0 W/m 0,3 C 6,0 C 3,5 kts (2 Bft) 100,00 %
21.04.2019 04:24 6,0 C 67 % 1024,1 hPa 0,0 l/m 3,1 kts (2 Bft) N-NO 14 0 min 0,0 UV-I 0 W/m 0,3 C 6,0 C 3,5 kts (2 Bft) 100,00 %
21.04.2019 04:23 6,0 C 67 % 1024,0 hPa 0,0 l/m 3,2 kts (2 Bft) N-NO 14 0 min 0,0 UV-I 0 W/m 0,3 C 6,0 C 3,5 kts (2 Bft) 100,00 %
21.04.2019 04:22 5,9 C 67 % 1024,1 hPa 0,0 l/m 3,3 kts (2 Bft) N-NO 14 0 min 0,0 UV-I 0 W/m 0,3 C 5,9 C 3,5 kts (2 Bft) 100,00 %
21.04.2019 04:21 5,9 C 67 % 1024,1 hPa 0,0 l/m 3,5 kts (2 Bft) N-NO 14 0 min 0,0 UV-I 0 W/m 0,3 C 5,9 C 3,5 kts (2 Bft) 100,00 %
21.04.2019 04:20 5,9 C 68 % 1024,1 hPa 0,0 l/m 3,5 kts (2 Bft) N-NO 14 0 min 0,0 UV-I 0 W/m 0,5 C 5,9 C 4,3 kts (2 Bft) 100,00 %
21.04.2019 04:19 5,8 C 68 % 1024,1 hPa 0,0 l/m 3,6 kts (2 Bft) N-NO 14 0 min 0,0 UV-I 0 W/m 0,4 C 5,7 C 4,3 kts (2 Bft) 100,00 %
21.04.2019 04:18 5,8 C 67 % 1024,1 hPa 0,0 l/m 3,5 kts (2 Bft) N-NO 14 0 min 0,0 UV-I 0 W/m 0,2 C 5,8 C 3,5 kts (2 Bft) 100,00 %
21.04.2019 04:17 5,8 C 68 % 1024,1 hPa 0,0 l/m 3,3 kts (2 Bft) N-NO 14 0 min 0,0 UV-I 0 W/m 0,4 C 5,8 C 3,5 kts (2 Bft) 100,00 %
21.04.2019 04:16 5,8 C 68 % 1024,1 hPa 0,0 l/m 3,3 kts (2 Bft) N-NO 14 0 min 0,0 UV-I 0 W/m 0,4 C 5,8 C 3,5 kts (2 Bft) 100,00 %
21.04.2019 04:15 5,8 C 68 % 1024,1 hPa 0,0 l/m 3,4 kts (2 Bft) N-NO 14 0 min 0,0 UV-I 0 W/m 0,4 C 5,8 C 3,5 kts (2 Bft) 100,00 %
21.04.2019 04:14 5,8 C 68 % 1024,1 hPa 0,0 l/m 3,2 kts (2 Bft) N-NO 14 0 min 0,0 UV-I 0 W/m 0,4 C 5,8 C 3,5 kts (2 Bft) 95,83 %
21.04.2019 04:13 5,7 C 68 % 1024,1 hPa 0,0 l/m 3,6 kts (2 Bft) N-NO 14 0 min 0,0 UV-I 0 W/m 0,3 C 5,6 C 4,3 kts (2 Bft) 100,00 %
21.04.2019 04:12 5,7 C 67 % 1024,1 hPa 0,0 l/m 3,3 kts (2 Bft) N-NO 14 0 min 0,0 UV-I 0 W/m 0,1 C 5,7 C 3,5 kts (2 Bft) 100,00 %
21.04.2019 04:11 5,8 C 67 % 1024,1 hPa 0,0 l/m 3,1 kts (2 Bft) N-NO 14 0 min 0,0 UV-I 0 W/m 0,2 C 5,8 C 3,5 kts (2 Bft) 100,00 %
21.04.2019 04:10 5,9 C 67 % 1024,1 hPa 0,0 l/m 3,5 kts (2 Bft) N-NO 14 0 min 0,0 UV-I 0 W/m 0,3 C 5,9 C 4,3 kts (2 Bft) 100,00 %
21.04.2019 04:09 6,0 C 66 % 1024,1 hPa 0,0 l/m 3,3 kts (2 Bft) N-NO 14 0 min 0,0 UV-I 0 W/m 0,1 C 6,0 C 4,3 kts (2 Bft) 100,00 %
21.04.2019 04:08 6,0 C 66 % 1024,1 hPa 0,0 l/m 2,9 kts (1 Bft) N-NO 14 0 min 0,0 UV-I 0 W/m 0,1 C 6,0 C 3,5 kts (2 Bft) 100,00 %
21.04.2019 04:07 6,1 C 66 % 1024,1 hPa 0,0 l/m 2,7 kts (1 Bft) N-NO 14 0 min 0,0 UV-I 0 W/m 0,2 C 6,1 C 3,5 kts (2 Bft) 100,00 %
21.04.2019 04:06 6,1 C 66 % 1024,1 hPa 0,0 l/m 2,8 kts (1 Bft) N-NO 14 0 min 0,0 UV-I 0 W/m 0,2 C 6,1 C 3,5 kts (2 Bft) 100,00 %
21.04.2019 04:05 6,1 C 66 % 1024,1 hPa 0,0 l/m 2,7 kts (1 Bft) N-NO 14 0 min 0,0 UV-I 0 W/m 0,2 C 6,1 C 3,5 kts (2 Bft) 100,00 %
21.04.2019 04:04 6,2 C 66 % 1024,1 hPa 0,0 l/m 2,8 kts (1 Bft) N-NO 14 0 min 0,0 UV-I 0 W/m 0,3 C 6,2 C 3,5 kts (2 Bft) 100,00 %
21.04.2019 04:03 6,2 C 66 % 1024,2 hPa 0,0 l/m 3,2 kts (2 Bft) N-NO 14 0 min 0,0 UV-I 0 W/m 0,3 C 6,2 C 4,3 kts (2 Bft) 100,00 %
21.04.2019 04:02 6,2 C 66 % 1024,2 hPa 0,0 l/m 2,9 kts (1 Bft) N-NO 14 0 min 0,0 UV-I 0 W/m 0,3 C 6,2 C 3,5 kts (2 Bft) 95,83 %
21.04.2019 04:01 6,1 C 66 % 1024,2 hPa 0,0 l/m 2,6 kts (1 Bft) N-NO 14 0 min 0,0 UV-I 0 W/m 0,2 C 6,1 C 3,5 kts (2 Bft) 100,00 %
21.04.2019 04:00 6,1 C 66 % 1024,2 hPa 0,0 l/m 2,6 kts (1 Bft) N-NO 14 0 min 0,0 UV-I 0 W/m 0,2 C 6,1 C 2,6 kts (1 Bft) 100,00 %
21.04.2019 03:59 6,1 C 66 % 1024,1 hPa 0,0 l/m 2,7 kts (1 Bft) N-NO 14 0 min 0,0 UV-I 0 W/m 0,2 C 6,1 C 3,5 kts (2 Bft) 100,00 %
21.04.2019 03:58 6,1 C 66 % 1024,2 hPa 0,0 l/m 2,8 kts (1 Bft) N-NO 14 0 min 0,0 UV-I 0 W/m 0,2 C 6,1 C 3,5 kts (2 Bft) 95,65 %
21.04.2019 03:57 6,3 C 65 % 1024,2 hPa 0,0 l/m 2,9 kts (1 Bft) N-NO 14 0 min 0,0 UV-I 0 W/m 0,2 C 6,3 C 3,5 kts (2 Bft) 96,30 %
21.04.2019 03:56 6,5 C 64 % 1024,1 hPa 0,0 l/m 3,0 kts (1 Bft) N-NO 14 0 min 0,0 UV-I 0 W/m 0,2 C 6,5 C 3,5 kts (2 Bft) 100,00 %
21.04.2019 03:55 6,7 C 64 % 1024,2 hPa 0,0 l/m 3,1 kts (1 Bft) N-NO 14 0 min 0,0 UV-I 0 W/m 0,4 C 6,7 C 3,5 kts (2 Bft) 100,00 %
21.04.2019 03:54 6,8 C 64 % 1024,2 hPa 0,0 l/m 2,8 kts (1 Bft) N-NO 14 0 min 0,0 UV-I 0 W/m 0,5 C 6,8 C 3,5 kts (2 Bft) 100,00 %
21.04.2019 03:53 6,8 C 63 % 1024,2 hPa 0,0 l/m 3,1 kts (2 Bft) N-NO 14 0 min 0,0 UV-I 0 W/m 0,3 C 6,8 C 4,3 kts (2 Bft) 95,65 %
21.04.2019 03:52 6,8 C 63 % 1024,2 hPa 0,0 l/m 3,1 kts (1 Bft) N-NO 14 0 min 0,0 UV-I 0 W/m 0,3 C 6,8 C 3,5 kts (2 Bft) 100,00 %
21.04.2019 03:51 6,8 C 63 % 1024,2 hPa 0,0 l/m 3,3 kts (2 Bft) N-NO 14 0 min 0,0 UV-I 0 W/m 0,3 C 6,8 C 4,3 kts (2 Bft) 100,00 %
21.04.2019 03:50 6,9 C 63 % 1024,1 hPa 0,0 l/m 3,0 kts (1 Bft) N-NO 14 0 min 0,0 UV-I 0 W/m 0,4 C 6,9 C 3,5 kts (2 Bft) 100,00 %
21.04.2019 03:49 6,9 C 63 % 1024,2 hPa 0,0 l/m 3,3 kts (2 Bft) N-NO 14 0 min 0,0 UV-I 0 W/m 0,4 C 6,9 C 4,3 kts (2 Bft) 100,00 %
21.04.2019 03:48 6,9 C 63 % 1024,2 hPa 0,0 l/m 3,8 kts (2 Bft) N-NO 14 0 min 0,0 UV-I 0 W/m 0,4 C 6,4 C 6,1 kts (2 Bft) 100,00 %
21.04.2019 03:47 6,9 C 63 % 1024,2 hPa 0,0 l/m 4,3 kts (2 Bft) N-NO 15 0 min 0,0 UV-I 0 W/m 0,4 C 5,6 C 7,0 kts (3 Bft) 100,00 %
21.04.2019 03:46 6,9 C 63 % 1024,3 hPa 0,0 l/m 3,8 kts (2 Bft) N 11 0 min 0,0 UV-I 0 W/m 0,4 C 6,4 C 6,1 kts (2 Bft) 100,00 %
21.04.2019 03:45 6,9 C 63 % 1024,2 hPa 0,0 l/m 2,9 kts (1 Bft) N 10 0 min 0,0 UV-I 0 W/m 0,4 C 6,9 C 3,5 kts (2 Bft) 100,00 %
21.04.2019 03:44 6,9 C 63 % 1024,2 hPa 0,0 l/m 2,8 kts (1 Bft) N 10 0 min 0,0 UV-I 0 W/m 0,4 C 6,9 C 3,5 kts (2 Bft) 100,00 %
21.04.2019 03:43 6,9 C 63 % 1024,2 hPa 0,0 l/m 2,6 kts (1 Bft) N 10 0 min 0,0 UV-I 0 W/m 0,4 C 6,9 C 2,6 kts (1 Bft) 100,00 %
21.04.2019 03:42 6,9 C 63 % 1024,2 hPa 0,0 l/m 2,2 kts (1 Bft) N 10 0 min 0,0 UV-I 0 W/m 0,4 C 6,9 C 2,6 kts (1 Bft) 100,00 %
21.04.2019 03:41 7,0 C 63 % 1024,2 hPa 0,0 l/m 2,4 kts (1 Bft) N 10 0 min 0,0 UV-I 0 W/m 0,4 C 7,0 C 3,5 kts (2 Bft) 100,00 %
21.04.2019 03:40 7,0 C 64 % 1024,2 hPa 0,0 l/m 3,0 kts (1 Bft) N 10 0 min 0,0 UV-I 0 W/m 0,7 C 7,0 C 4,3 kts (2 Bft) 100,00 %
21.04.2019 03:39 6,9 C 63 % 1024,2 hPa 0,0 l/m 2,4 kts (1 Bft) N 10 0 min 0,0 UV-I 0 W/m 0,4 C 6,9 C 2,6 kts (1 Bft) 95,65 %
21.04.2019 03:38 6,9 C 63 % 1024,2 hPa 0,0 l/m 2,5 kts (1 Bft) N 10 0 min 0,0 UV-I 0 W/m 0,4 C 6,9 C 3,5 kts (2 Bft) 100,00 %
21.04.2019 03:37 6,9 C 63 % 1024,2 hPa 0,0 l/m 2,5 kts (1 Bft) N 10 0 min 0,0 UV-I 0 W/m 0,4 C 6,9 C 2,6 kts (1 Bft) 100,00 %
21.04.2019 03:36 7,0 C 63 % 1024,2 hPa 0,0 l/m 2,2 kts (1 Bft) N 10 0 min 0,0 UV-I 0 W/m 0,4 C 7,0 C 2,6 kts (1 Bft) 100,00 %
21.04.2019 03:35 7,0 C 63 % 1024,2 hPa 0,0 l/m 2,6 kts (1 Bft) N 10 0 min 0,0 UV-I 0 W/m 0,4 C 7,0 C 3,5 kts (2 Bft) 100,00 %
21.04.2019 03:34 7,0 C 63 % 1024,2 hPa 0,0 l/m 2,6 kts (1 Bft) N 10 0 min 0,0 UV-I 0 W/m 0,4 C 7,0 C 3,5 kts (2 Bft) 100,00 %
21.04.2019 03:33 7,0 C 63 % 1024,2 hPa 0,0 l/m 2,7 kts (1 Bft) N 10 0 min 0,0 UV-I 0 W/m 0,4 C 7,0 C 3,5 kts (2 Bft) 100,00 %
21.04.2019 03:32 7,1 C 63 % 1024,3 hPa 0,0 l/m 2,6 kts (1 Bft) N 10 0 min 0,0 UV-I 0 W/m 0,5 C 7,1 C 3,5 kts (2 Bft) 100,00 %
21.04.2019 03:31 7,1 C 63 % 1024,3 hPa 0,0 l/m 2,4 kts (1 Bft) N 10 0 min 0,0 UV-I 0 W/m 0,5 C 7,1 C 2,6 kts (1 Bft) 100,00 %
21.04.2019 03:30 7,1 C 63 % 1024,3 hPa 0,0 l/m 2,5 kts (1 Bft) N 10 0 min 0,0 UV-I 0 W/m 0,5 C 7,1 C 2,6 kts (1 Bft) 93,75 %
21.04.2019 03:29 7,1 C 63 % 1024,3 hPa 0,0 l/m 2,6 kts (1 Bft) N 10 0 min 0,0 UV-I 0 W/m 0,5 C 7,1 C 3,5 kts (2 Bft) 100,00 %
21.04.2019 03:28 7,1 C 63 % 1024,3 hPa 0,0 l/m 2,9 kts (1 Bft) N 10 0 min 0,0 UV-I 0 W/m 0,5 C 7,1 C 3,5 kts (2 Bft) 100,00 %
21.04.2019 03:27 7,1 C 63 % 1024,4 hPa 0,0 l/m 3,0 kts (1 Bft) N 10 0 min 0,0 UV-I 0 W/m 0,5 C 7,1 C 3,5 kts (2 Bft) 100,00 %
21.04.2019 03:26 7,1 C 63 % 1024,3 hPa 0,0 l/m 3,1 kts (1 Bft) N 10 0 min 0,0 UV-I 0 W/m 0,5 C 7,1 C 3,5 kts (2 Bft) 100,00 %
21.04.2019 03:25 7,2 C 63 % 1024,3 hPa 0,0 l/m 3,6 kts (2 Bft) N 10 0 min 0,0 UV-I 0 W/m 0,6 C 7,1 C 4,3 kts (2 Bft) 100,00 %
21.04.2019 03:24 7,1 C 63 % 1024,3 hPa 0,0 l/m 2,9 kts (1 Bft) N 10 0 min 0,0 UV-I 0 W/m 0,5 C 7,1 C 3,5 kts (2 Bft) 100,00 %
21.04.2019 03:23 7,1 C 63 % 1024,4 hPa 0,0 l/m 3,1 kts (2 Bft) N 10 0 min 0,0 UV-I 0 W/m 0,5 C 7,1 C 3,5 kts (2 Bft) 100,00 %
21.04.2019 03:22 6,9 C 64 % 1024,3 hPa 0,0 l/m 3,0 kts (1 Bft) N 10 0 min 0,0 UV-I 0 W/m 0,6 C 6,9 C 3,5 kts (2 Bft) 95,65 %
21.04.2019 03:21 6,9 C 64 % 1024,3 hPa 0,0 l/m 2,9 kts (1 Bft) N 10 0 min 0,0 UV-I 0 W/m 0,6 C 6,9 C 3,5 kts (2 Bft) 95,83 %
21.04.2019 03:20 6,9 C 64 % 1024,3 hPa 0,0 l/m 2,7 kts (1 Bft) N 10 0 min 0,0 UV-I 0 W/m 0,6 C 6,9 C 4,3 kts (2 Bft) 100,00 %
21.04.2019 03:19 6,8 C 64 % 1024,4 hPa 0,0 l/m 2,1 kts (1 Bft) N 10 0 min 0,0 UV-I 0 W/m 0,5 C 6,8 C 2,6 kts (1 Bft) 100,00 %
21.04.2019 03:18 6,8 C 64 % 1024,3 hPa 0,0 l/m 2,2 kts (1 Bft) N 10 0 min 0,0 UV-I 0 W/m 0,5 C 6,8 C 2,6 kts (1 Bft) 100,00 %
21.04.2019 03:17 6,8 C 64 % 1024,4 hPa 0,0 l/m 1,9 kts (1 Bft) N 10 0 min 0,0 UV-I 0 W/m 0,5 C 6,8 C 2,6 kts (1 Bft) 100,00 %
21.04.2019 03:16 6,8 C 64 % 1024,3 hPa 0,0 l/m 2,4 kts (1 Bft) N 10 0 min 0,0 UV-I 0 W/m 0,5 C 6,8 C 3,5 kts (2 Bft) 100,00 %
21.04.2019 03:15 6,8 C 64 % 1024,4 hPa 0,0 l/m 2,6 kts (1 Bft) N 10 0 min 0,0 UV-I 0 W/m 0,5 C 6,8 C 3,5 kts (2 Bft) 100,00 %
21.04.2019 03:14 6,8 C 64 % 1024,4 hPa 0,0 l/m 2,2 kts (1 Bft) N 10 0 min 0,0 UV-I 0 W/m 0,5 C 6,8 C 2,6 kts (1 Bft) 96,67 %
21.04.2019 03:13 6,9 C 64 % 1024,4 hPa 0,0 l/m 2,2 kts (1 Bft) N 10 0 min 0,0 UV-I 0 W/m 0,6 C 6,9 C 2,6 kts (1 Bft) 96,88 %
21.04.2019 03:12 6,9 C 64 % 1024,4 hPa 0,0 l/m 2,6 kts (1 Bft) N 10 0 min 0,0 UV-I 0 W/m 0,6 C 6,9 C 2,6 kts (1 Bft) 100,00 %
21.04.2019 03:11 6,9 C 64 % 1024,4 hPa 0,0 l/m 3,0 kts (1 Bft) N 10 0 min 0,0 UV-I 0 W/m 0,6 C 6,9 C 3,5 kts (2 Bft) 100,00 %
21.04.2019 03:10 6,9 C 64 % 1024,4 hPa 0,0 l/m 3,3 kts (2 Bft) N 10 0 min 0,0 UV-I 0 W/m 0,6 C 6,9 C 4,3 kts (2 Bft) 93,10 %
21.04.2019 03:09 6,9 C 65 % 1024,4 hPa 0,0 l/m 3,1 kts (2 Bft) N 10 0 min 0,0 UV-I 0 W/m 0,8 C 6,9 C 3,5 kts (2 Bft) 95,83 %
21.04.2019 03:08 6,8 C 65 % 1024,5 hPa 0,0 l/m 3,4 kts (2 Bft) N 10 0 min 0,0 UV-I 0 W/m 0,7 C 6,8 C 3,5 kts (2 Bft) 100,00 %
21.04.2019 03:07 6,7 C 65 % 1024,5 hPa 0,0 l/m 3,2 kts (2 Bft) N 10 0 min 0,0 UV-I 0 W/m 0,6 C 6,7 C 3,5 kts (2 Bft) 96,30 %
21.04.2019 03:06 6,6 C 66 % 1024,5 hPa 0,0 l/m 3,0 kts (1 Bft) N 10 0 min 0,0 UV-I 0 W/m 0,7 C 6,6 C 3,5 kts (2 Bft) 96,15 %
21.04.2019 03:05 6,5 C 66 % 1024,5 hPa 0,0 l/m 2,9 kts (1 Bft) N 10 0 min 0,0 UV-I 0 W/m 0,6 C 6,5 C 3,5 kts (2 Bft) 92,31 %
21.04.2019 03:04 6,4 C 66 % 1024,5 hPa 0,0 l/m 2,9 kts (1 Bft) N 10 0 min 0,0 UV-I 0 W/m 0,5 C 6,4 C 3,5 kts (2 Bft) 100,00 %
21.04.2019 03:03 6,4 C 66 % 1024,4 hPa 0,0 l/m 3,0 kts (1 Bft) N 10 0 min 0,0 UV-I 0 W/m 0,5 C 6,4 C 3,5 kts (2 Bft) 96,15 %
21.04.2019 03:02 6,4 C 67 % 1024,5 hPa 0,0 l/m 2,9 kts (1 Bft) N 10 0 min 0,0 UV-I 0 W/m 0,7 C 6,4 C 3,5 kts (2 Bft) 96,30 %
21.04.2019 03:01 6,4 C 67 % 1024,5 hPa 0,0 l/m 2,6 kts (1 Bft) N 10 0 min 0,0 UV-I 0 W/m 0,7 C 6,4 C 3,5 kts (2 Bft) 100,00 %
21.04.2019 03:00 6,4 C 67 % 1024,5 hPa 0,0 l/m 2,8 kts (1 Bft) N 10 0 min 0,0 UV-I 0 W/m 0,7 C 6,4 C 3,5 kts (2 Bft) 100,00 %
21.04.2019 02:59 6,3 C 67 % 1024,6 hPa 0,0 l/m 2,6 kts (1 Bft) N 10 0 min 0,0 UV-I 0 W/m 0,6 C 6,3 C 3,5 kts (2 Bft) 96,15 %
21.04.2019 02:58 6,3 C 67 % 1024,5 hPa 0,0 l/m 3,1 kts (1 Bft) N 10 0 min 0,0 UV-I 0 W/m 0,6 C 6,3 C 4,3 kts (2 Bft) 95,65 %
21.04.2019 02:57 6,4 C 67 % 1024,5 hPa 0,0 l/m 3,6 kts (2 Bft) N 10 0 min 0,0 UV-I 0 W/m 0,7 C 6,3 C 4,3 kts (2 Bft) 100,00 %
21.04.2019 02:56 6,4 C 67 % 1024,4 hPa 0,0 l/m 3,1 kts (1 Bft) N 10 0 min 0,0 UV-I 0 W/m 0,7 C 6,4 C 4,3 kts (2 Bft) 96,15 %
21.04.2019 02:55 6,4 C 67 % 1024,6 hPa 0,0 l/m 3,5 kts (2 Bft) N 10 0 min 0,0 UV-I 0 W/m 0,7 C 6,4 C 4,3 kts (2 Bft) 100,00 %
21.04.2019 02:54 6,4 C 67 % 1024,6 hPa 0,0 l/m 3,9 kts (2 Bft) N 10 0 min 0,0 UV-I 0 W/m 0,7 C 5,7 C 4,3 kts (2 Bft) 95,65 %
21.04.2019 02:53 6,4 C 67 % 1024,6 hPa 0,0 l/m 3,6 kts (2 Bft) N 10 0 min 0,0 UV-I 0 W/m 0,7 C 6,2 C 4,3 kts (2 Bft) 96,15 %
21.04.2019 02:52 6,4 C 66 % 1024,6 hPa 0,0 l/m 3,6 kts (2 Bft) N 10 0 min 0,0 UV-I 0 W/m 0,5 C 6,3 C 4,3 kts (2 Bft) 100,00 %
21.04.2019 02:51 6,5 C 66 % 1024,5 hPa 0,0 l/m 3,6 kts (2 Bft) N 10 0 min 0,0 UV-I 0 W/m 0,6 C 6,4 C 4,3 kts (2 Bft) 100,00 %
21.04.2019 02:50 6,6 C 66 % 1024,5 hPa 0,0 l/m 3,4 kts (2 Bft) N 10 0 min 0,0 UV-I 0 W/m 0,7 C 6,6 C 4,3 kts (2 Bft) 96,30 %
21.04.2019 02:49 6,6 C 66 % 1024,6 hPa 0,0 l/m 3,5 kts (2 Bft) N 10 0 min 0,0 UV-I 0 W/m 0,7 C 6,6 C 4,3 kts (2 Bft) 95,65 %
21.04.2019 02:48 6,5 C 66 % 1024,6 hPa 0,0 l/m 3,6 kts (2 Bft) N 10 0 min 0,0 UV-I 0 W/m 0,6 C 6,3 C 4,3 kts (2 Bft) 100,00 %
21.04.2019 02:47 6,6 C 66 % 1024,6 hPa 0,0 l/m 3,7 kts (2 Bft) N 10 0 min 0,0 UV-I 0 W/m 0,7 C 6,3 C 4,3 kts (2 Bft) 96,30 %
21.04.2019 02:46 6,5 C 66 % 1024,6 hPa 0,0 l/m 3,7 kts (2 Bft) N 10 0 min 0,0 UV-I 0 W/m 0,6 C 6,2 C 4,3 kts (2 Bft) 100,00 %
21.04.2019 02:45 6,6 C 66 % 1024,6 hPa 0,0 l/m 4,0 kts (2 Bft) N 10 0 min 0,0 UV-I 0 W/m 0,7 C 5,8 C 4,3 kts (2 Bft) 96,30 %
21.04.2019 02:44 6,7 C 65 % 1024,6 hPa 0,0 l/m 4,0 kts (2 Bft) N 10 0 min 0,0 UV-I 0 W/m 0,6 C 5,8 C 4,3 kts (2 Bft) 100,00 %
21.04.2019 02:43 6,9 C 64 % 1024,6 hPa 0,0 l/m 3,7 kts (2 Bft) N 10 0 min 0,0 UV-I 0 W/m 0,6 C 6,6 C 4,3 kts (2 Bft) 95,83 %
21.04.2019 02:42 7,1 C 64 % 1024,6 hPa 0,0 l/m 3,7 kts (2 Bft) N 10 0 min 0,0 UV-I 0 W/m 0,8 C 6,7 C 4,3 kts (2 Bft) 96,15 %
21.04.2019 02:41 7,1 C 64 % 1024,6 hPa 0,0 l/m 3,5 kts (2 Bft) N 10 0 min 0,0 UV-I 0 W/m 0,8 C 7,1 C 3,5 kts (2 Bft) 100,00 %
21.04.2019 02:40 7,1 C 65 % 1024,6 hPa 0,0 l/m 4,0 kts (2 Bft) N 10 0 min 0,0 UV-I 0 W/m 1,0 C 6,3 C 7,0 kts (3 Bft) 95,83 %
21.04.2019 02:39 7,0 C 65 % 1024,6 hPa 0,0 l/m 3,9 kts (2 Bft) N 9 0 min 0,0 UV-I 0 W/m 0,9 C 6,3 C 6,1 kts (2 Bft) 100,00 %
21.04.2019 02:38 6,9 C 65 % 1024,7 hPa 0,0 l/m 3,5 kts (2 Bft) N 9 0 min 0,0 UV-I 0 W/m 0,8 C 6,9 C 4,3 kts (2 Bft) 95,83 %
21.04.2019 02:37 6,9 C 65 % 1024,6 hPa 0,0 l/m 3,6 kts (2 Bft) N 9 0 min 0,0 UV-I 0 W/m 0,8 C 6,8 C 4,3 kts (2 Bft) 100,00 %
21.04.2019 02:36 6,9 C 65 % 1024,6 hPa 0,0 l/m 3,0 kts (1 Bft) N 9 0 min 0,0 UV-I 0 W/m 0,8 C 6,9 C 4,3 kts (2 Bft) 95,83 %
21.04.2019 02:35 6,8 C 65 % 1024,6 hPa 0,0 l/m 3,1 kts (2 Bft) N 9 0 min 0,0 UV-I 0 W/m 0,7 C 6,8 C 3,5 kts (2 Bft) 100,00 %
21.04.2019 02:34 6,9 C 65 % 1024,6 hPa 0,0 l/m 3,5 kts (2 Bft) N 9 0 min 0,0 UV-I 0 W/m 0,8 C 6,9 C 4,3 kts (2 Bft) 95,65 %
21.04.2019 02:33 7,0 C 65 % 1024,6 hPa 0,0 l/m 3,1 kts (2 Bft) N 9 0 min 0,0 UV-I 0 W/m 0,9 C 7,0 C 3,5 kts (2 Bft) 100,00 %
21.04.2019 02:32 6,9 C 65 % 1024,7 hPa 0,0 l/m 3,1 kts (2 Bft) N 9 0 min 0,0 UV-I 0 W/m 0,8 C 6,9 C 3,5 kts (2 Bft) 95,65 %
21.04.2019 02:31 6,9 C 65 % 1024,6 hPa 0,0 l/m 2,8 kts (1 Bft) N 9 0 min 0,0 UV-I 0 W/m 0,8 C 6,9 C 3,5 kts (2 Bft) 95,83 %
21.04.2019 02:30 6,9 C 65 % 1024,6 hPa 0,0 l/m 2,5 kts (1 Bft) N 9 0 min 0,0 UV-I 0 W/m 0,8 C 6,9 C 2,6 kts (1 Bft) 100,00 %
21.04.2019 02:29 6,9 C 65 % 1024,5 hPa 0,0 l/m 2,9 kts (1 Bft) N 9 0 min 0,0 UV-I 0 W/m 0,8 C 6,9 C 3,5 kts (2 Bft) 96,30 %
21.04.2019 02:28 6,9 C 65 % 1024,6 hPa 0,0 l/m 2,8 kts (1 Bft) N 9 0 min 0,0 UV-I 0 W/m 0,8 C 6,9 C 3,5 kts (2 Bft) 100,00 %
21.04.2019 02:27 6,9 C 64 % 1024,6 hPa 0,0 l/m 3,5 kts (2 Bft) N 9 0 min 0,0 UV-I 0 W/m 0,6 C 6,8 C 4,3 kts (2 Bft) 95,65 %
21.04.2019 02:26 6,9 C 64 % 1024,6 hPa 0,0 l/m 3,0 kts (1 Bft) N 9 0 min 0,0 UV-I 0 W/m 0,6 C 6,9 C 3,5 kts (2 Bft) 100,00 %
21.04.2019 02:25 7,0 C 64 % 1024,7 hPa 0,0 l/m 3,2 kts (2 Bft) N 9 0 min 0,0 UV-I 0 W/m 0,7 C 7,0 C 3,5 kts (2 Bft) 95,65 %
21.04.2019 02:24 7,1 C 64 % 1024,7 hPa 0,0 l/m 3,2 kts (2 Bft) N 9 0 min 0,0 UV-I 0 W/m 0,8 C 7,1 C 3,5 kts (2 Bft) 95,83 %
21.04.2019 02:23 7,1 C 64 % 1024,6 hPa 0,0 l/m 3,2 kts (2 Bft) N 9 0 min 0,0 UV-I 0 W/m 0,8 C 7,1 C 3,5 kts (2 Bft) 100,00 %
21.04.2019 02:22 7,1 C 64 % 1024,6 hPa 0,0 l/m 3,6 kts (2 Bft) N 9 0 min 0,0 UV-I 0 W/m 0,8 C 7,0 C 4,3 kts (2 Bft) 91,30 %
21.04.2019 02:21 7,2 C 63 % 1024,7 hPa 0,0 l/m 3,5 kts (2 Bft) N 9 0 min 0,0 UV-I 0 W/m 0,6 C 7,2 C 3,5 kts (2 Bft) 100,00 %
21.04.2019 02:20 7,4 C 63 % 1024,6 hPa 0,0 l/m 3,5 kts (2 Bft) N 9 0 min 0,0 UV-I 0 W/m 0,8 C 7,3 C 4,3 kts (2 Bft) 91,30 %
21.04.2019 02:19 7,6 C 63 % 1024,7 hPa 0,0 l/m 3,3 kts (2 Bft) N 9 0 min 0,0 UV-I 0 W/m 1,0 C 7,6 C 4,3 kts (2 Bft) 100,00 %
21.04.2019 02:18 7,6 C 62 % 1024,8 hPa 0,0 l/m 3,1 kts (2 Bft) N 9 0 min 0,0 UV-I 0 W/m 0,8 C 7,6 C 3,5 kts (2 Bft) 96,15 %
21.04.2019 02:17 7,6 C 62 % 1024,8 hPa 0,0 l/m 3,3 kts (2 Bft) N 9 0 min 0,0 UV-I 0 W/m 0,8 C 7,6 C 3,5 kts (2 Bft) 100,00 %
21.04.2019 02:16 7,7 C 62 % 1024,7 hPa 0,0 l/m 3,2 kts (2 Bft) N 9 0 min 0,0 UV-I 0 W/m 0,9 C 7,7 C 3,5 kts (2 Bft) 96,15 %
21.04.2019 02:15 7,7 C 61 % 1024,7 hPa 0,0 l/m 2,9 kts (1 Bft) N 9 0 min 0,0 UV-I 0 W/m 0,7 C 7,7 C 3,5 kts (2 Bft) 95,65 %
21.04.2019 02:14 7,8 C 61 % 1024,8 hPa 0,0 l/m 2,9 kts (1 Bft) N 9 0 min 0,0 UV-I 0 W/m 0,8 C 7,8 C 3,5 kts (2 Bft) 100,00 %
21.04.2019 02:13 7,9 C 61 % 1024,7 hPa 0,0 l/m 3,2 kts (2 Bft) N 9 0 min 0,0 UV-I 0 W/m 0,9 C 7,9 C 3,5 kts (2 Bft) 95,65 %
21.04.2019 02:12 8,1 C 60 % 1024,8 hPa 0,0 l/m 3,5 kts (2 Bft) N 9 0 min 0,0 UV-I 0 W/m 0,8 C 8,0 C 4,3 kts (2 Bft) 100,00 %
21.04.2019 02:11 8,3 C 60 % 1024,8 hPa 0,0 l/m 3,4 kts (2 Bft) N 9 0 min 0,0 UV-I 0 W/m 1,0 C 8,3 C 4,3 kts (2 Bft) 95,65 %
21.04.2019 02:10 8,4 C 59 % 1024,8 hPa 0,0 l/m 3,2 kts (2 Bft) N 9 0 min 0,0 UV-I 0 W/m 0,9 C 8,4 C 4,3 kts (2 Bft) 100,00 %
21.04.2019 02:09 8,4 C 59 % 1024,8 hPa 0,0 l/m 3,2 kts (2 Bft) N 9 0 min 0,0 UV-I 0 W/m 0,9 C 8,4 C 4,3 kts (2 Bft) 95,83 %
21.04.2019 02:08 8,4 C 59 % 1024,8 hPa 0,0 l/m 2,8 kts (1 Bft) N 9 0 min 0,0 UV-I 0 W/m 0,9 C 8,4 C 3,5 kts (2 Bft) 100,00 %
21.04.2019 02:07 8,4 C 59 % 1024,8 hPa 0,0 l/m 2,5 kts (1 Bft) N 9 0 min 0,0 UV-I 0 W/m 0,9 C 8,4 C 3,5 kts (2 Bft) 96,30 %
21.04.2019 02:06 8,4 C 59 % 1024,8 hPa 0,0 l/m 2,6 kts (1 Bft) N 9 0 min 0,0 UV-I 0 W/m 0,9 C 8,4 C 3,5 kts (2 Bft) 96,55 %
21.04.2019 02:05 8,4 C 59 % 1024,8 hPa 0,0 l/m 3,1 kts (2 Bft) N 9 0 min 0,0 UV-I 0 W/m 0,9 C 8,4 C 3,5 kts (2 Bft) 95,65 %
21.04.2019 02:04 8,4 C 59 % 1024,8 hPa 0,0 l/m 2,5 kts (1 Bft) N 9 0 min 0,0 UV-I 0 W/m 0,9 C 8,4 C 3,5 kts (2 Bft) 95,83 %
21.04.2019 02:03 8,5 C 59 % 1024,8 hPa 0,0 l/m 1,8 kts (1 Bft) N 9 0 min 0,0 UV-I 0 W/m 1,0 C 8,5 C 2,6 kts (1 Bft) 95,65 %
21.04.2019 02:02 8,4 C 59 % 1024,8 hPa 0,0 l/m 2,0 kts (1 Bft) N 9 0 min 0,0 UV-I 0 W/m 0,9 C 8,4 C 2,6 kts (1 Bft) 100,00 %
21.04.2019 02:01 8,4 C 59 % 1024,8 hPa 0,0 l/m 1,9 kts (1 Bft) N 9 0 min 0,0 UV-I 0 W/m 0,9 C 8,4 C 2,6 kts (1 Bft) 100,00 %
21.04.2019 02:00 8,4 C 59 % 1024,8 hPa 0,0 l/m 2,1 kts (1 Bft) N 9 0 min 0,0 UV-I 0 W/m 0,9 C 8,4 C 2,6 kts (1 Bft) 100,00 %
21.04.2019 01:59 8,3 C 59 % 1024,7 hPa 0,0 l/m 2,5 kts (1 Bft) N 9 0 min 0,0 UV-I 0 W/m 0,8 C 8,3 C 3,5 kts (2 Bft) 100,00 %
21.04.2019 01:58 8,3 C 60 % 1024,8 hPa 0,0 l/m 2,3 kts (1 Bft) N 9 0 min 0,0 UV-I 0 W/m 1,0 C 8,3 C 2,6 kts (1 Bft) 100,00 %
21.04.2019 01:57 8,2 C 60 % 1024,8 hPa 0,0 l/m 2,4 kts (1 Bft) N 9 0 min 0,0 UV-I 0 W/m 0,9 C 8,2 C 2,6 kts (1 Bft) 100,00 %
21.04.2019 01:56 8,3 C 60 % 1024,8 hPa 0,0 l/m 1,6 kts (1 Bft) N 9 0 min 0,0 UV-I 0 W/m 1,0 C 8,3 C 2,6 kts (1 Bft) 100,00 %
21.04.2019 01:55 8,2 C 60 % 1024,8 hPa 0,0 l/m 1,6 kts (1 Bft) N 9 0 min 0,0 UV-I 0 W/m 0,9 C 8,2 C 1,7 kts (1 Bft) 100,00 %
21.04.2019 01:54 8,2 C 60 % 1024,8 hPa 0,0 l/m 1,7 kts (1 Bft) N 9 0 min 0,0 UV-I 0 W/m 0,9 C 8,2 C 1,7 kts (1 Bft) 100,00 %
21.04.2019 01:53 8,2 C 60 % 1024,8 hPa 0,0 l/m 1,7 kts (1 Bft) N 9 0 min 0,0 UV-I 0 W/m 0,9 C 8,2 C 2,6 kts (1 Bft) 100,00 %
21.04.2019 01:52 8,1 C 60 % 1024,8 hPa 0,0 l/m 2,2 kts (1 Bft) N 9 0 min 0,0 UV-I 0 W/m 0,8 C 8,1 C 2,6 kts (1 Bft) 100,00 %
21.04.2019 01:51 8,1 C 61 % 1024,8 hPa 0,0 l/m 2,3 kts (1 Bft) N 9 0 min 0,0 UV-I 0 W/m 1,0 C 8,1 C 2,6 kts (1 Bft) 100,00 %
21.04.2019 01:50 8,1 C 60 % 1024,8 hPa 0,0 l/m 2,3 kts (1 Bft) N 9 0 min 0,0 UV-I 0 W/m 0,8 C 8,1 C 3,5 kts (2 Bft) 100,00 %
21.04.2019 01:49 8,1 C 60 % 1024,8 hPa 0,0 l/m 3,1 kts (2 Bft) N 9 0 min 0,0 UV-I 0 W/m 0,8 C 8,1 C 3,5 kts (2 Bft) 100,00 %
21.04.2019 01:48 8,1 C 60 % 1024,8 hPa 0,0 l/m 2,0 kts (1 Bft) N 9 0 min 0,0 UV-I 0 W/m 0,8 C 8,1 C 3,5 kts (2 Bft) 100,00 %
21.04.2019 01:47 8,1 C 61 % 1024,8 hPa 0,0 l/m 2,6 kts (1 Bft) N 9 0 min 0,0 UV-I 0 W/m 1,0 C 8,1 C 2,6 kts (1 Bft) 100,00 %
21.04.2019 01:46 8,1 C 60 % 1024,8 hPa 0,0 l/m 2,6 kts (1 Bft) N 9 0 min 0,0 UV-I 0 W/m 0,8 C 8,1 C 3,5 kts (2 Bft) 100,00 %
21.04.2019 01:45 8,1 C 60 % 1024,8 hPa 0,0 l/m 2,4 kts (1 Bft) N 9 0 min 0,0 UV-I 0 W/m 0,8 C 8,1 C 2,6 kts (1 Bft) 100,00 %
21.04.2019 01:44 8,1 C 61 % 1024,8 hPa 0,0 l/m 2,6 kts (1 Bft) N 9 0 min 0,0 UV-I 0 W/m 1,0 C 8,1 C 3,5 kts (2 Bft) 100,00 %
21.04.2019 01:43 8,1 C 61 % 1024,8 hPa 0,0 l/m 3,0 kts (1 Bft) N 9 0 min 0,0 UV-I 0 W/m 1,0 C 8,1 C 3,5 kts (2 Bft) 100,00 %
21.04.2019 01:42 8,2 C 60 % 1024,8 hPa 0,0 l/m 3,2 kts (2 Bft) N 9 0 min 0,0 UV-I 0 W/m 0,9 C 8,2 C 3,5 kts (2 Bft) 100,00 %
21.04.2019 01:41 8,3 C 60 % 1024,9 hPa 0,0 l/m 3,2 kts (2 Bft) N 9 0 min 0,0 UV-I 0 W/m 1,0 C 8,3 C 3,5 kts (2 Bft) 100,00 %
21.04.2019 01:40 8,6 C 59 % 1024,8 hPa 0,0 l/m 3,2 kts (2 Bft) N 9 0 min 0,0 UV-I 0 W/m 1,0 C 8,6 C 4,3 kts (2 Bft) 100,00 %
21.04.2019 01:39 8,5 C 59 % 1024,9 hPa 0,0 l/m 2,9 kts (1 Bft) N 9 0 min 0,0 UV-I 0 W/m 1,0 C 8,5 C 3,5 kts (2 Bft) 100,00 %
21.04.2019 01:38 8,6 C 58 % 1024,8 hPa 0,0 l/m 2,6 kts (1 Bft) N 9 0 min 0,0 UV-I 0 W/m 0,8 C 8,6 C 3,5 kts (2 Bft) 100,00 %
21.04.2019 01:37 8,8 C 59 % 1024,8 hPa 0,0 l/m 2,6 kts (1 Bft) N 9 0 min 0,0 UV-I 0 W/m 1,2 C 8,8 C 3,5 kts (2 Bft) 100,00 %
21.04.2019 01:36 8,9 C 59 % 1024,9 hPa 0,0 l/m 3,1 kts (2 Bft) N 9 0 min 0,0 UV-I 0 W/m 1,3 C 8,9 C 4,3 kts (2 Bft) 95,65 %
21.04.2019 01:35 8,9 C 57 % 1024,8 hPa 0,0 l/m 3,2 kts (2 Bft) N 9 0 min 0,0 UV-I 0 W/m 0,9 C 8,9 C 4,3 kts (2 Bft) 100,00 %
21.04.2019 01:34 8,9 C 56 % 1024,9 hPa 0,0 l/m 4,0 kts (2 Bft) N 9 0 min 0,0 UV-I 0 W/m 0,6 C 8,1 C 6,1 kts (2 Bft) 100,00 %
21.04.2019 01:33 8,8 C 57 % 1024,8 hPa 0,0 l/m 3,9 kts (2 Bft) N 9 0 min 0,0 UV-I 0 W/m 0,8 C 8,2 C 6,1 kts (2 Bft) 100,00 %
21.04.2019 01:32 8,7 C 57 % 1024,9 hPa 0,0 l/m 4,1 kts (2 Bft) N 9 0 min 0,0 UV-I 0 W/m 0,7 C 7,8 C 4,3 kts (2 Bft) 100,00 %
21.04.2019 01:31 8,6 C 59 % 1024,9 hPa 0,0 l/m 4,8 kts (2 Bft) N 9 0 min 0,0 UV-I 0 W/m 1,0 C 6,8 C 7,0 kts (3 Bft) 100,00 %
21.04.2019 01:30 8,4 C 59 % 1024,9 hPa 0,0 l/m 3,8 kts (2 Bft) N 5 0 min 0,0 UV-I 0 W/m 0,9 C 7,9 C 4,3 kts (2 Bft) 100,00 %
21.04.2019 01:29 8,2 C 59 % 1024,9 hPa 0,0 l/m 4,3 kts (2 Bft) N 5 0 min 0,0 UV-I 0 W/m 0,7 C 7,0 C 5,2 kts (2 Bft) 100,00 %
21.04.2019 01:28 8,1 C 60 % 1024,9 hPa 0,0 l/m 4,1 kts (2 Bft) N 5 0 min 0,0 UV-I 0 W/m 0,8 C 7,2 C 4,3 kts (2 Bft) 100,00 %
21.04.2019 01:27 8,0 C 61 % 1024,9 hPa 0,0 l/m 3,8 kts (2 Bft) N 5 0 min 0,0 UV-I 0 W/m 0,9 C 7,4 C 4,3 kts (2 Bft) 100,00 %
21.04.2019 01:26 8,1 C 61 % 1024,9 hPa 0,0 l/m 3,1 kts (2 Bft) N 5 0 min 0,0 UV-I 0 W/m 1,0 C 8,1 C 3,5 kts (2 Bft) 100,00 %
21.04.2019 01:25 8,2 C 61 % 1024,9 hPa 0,0 l/m 3,2 kts (2 Bft) N 5 0 min 0,0 UV-I 0 W/m 1,1 C 8,2 C 4,3 kts (2 Bft) 100,00 %
21.04.2019 01:24 8,1 C 61 % 1024,9 hPa 0,0 l/m 3,3 kts (2 Bft) N 5 0 min 0,0 UV-I 0 W/m 1,0 C 8,1 C 4,3 kts (2 Bft) 100,00 %
21.04.2019 01:23 8,0 C 61 % 1024,9 hPa 0,0 l/m 2,5 kts (1 Bft) N 5 0 min 0,0 UV-I 0 W/m 0,9 C 8,0 C 2,6 kts (1 Bft) 100,00 %
21.04.2019 01:22 7,9 C 61 % 1025,0 hPa 0,0 l/m 2,9 kts (1 Bft) N 5 0 min 0,0 UV-I 0 W/m 0,9 C 7,9 C 3,5 kts (2 Bft) 100,00 %
21.04.2019 01:21 7,9 C 62 % 1024,9 hPa 0,0 l/m 3,0 kts (1 Bft) N 5 0 min 0,0 UV-I 0 W/m 1,1 C 7,9 C 3,5 kts (2 Bft) 100,00 %
21.04.2019 01:20 7,9 C 62 % 1024,9 hPa 0,0 l/m 2,9 kts (1 Bft) N 5 0 min 0,0 UV-I 0 W/m 1,1 C 7,9 C 4,3 kts (2 Bft) 100,00 %
21.04.2019 01:19 7,9 C 62 % 1025,0 hPa 0,0 l/m 3,2 kts (2 Bft) N 5 0 min 0,0 UV-I 0 W/m 1,1 C 7,9 C 4,3 kts (2 Bft) 100,00 %
21.04.2019 01:18 7,8 C 62 % 1025,0 hPa 0,0 l/m 3,4 kts (2 Bft) N 5 0 min 0,0 UV-I 0 W/m 1,0 C 7,8 C 4,3 kts (2 Bft) 100,00 %
21.04.2019 01:17 7,9 C 60 % 1025,0 hPa 0,0 l/m 4,4 kts (2 Bft) N 5 0 min 0,0 UV-I 0 W/m 0,6 C 6,5 C 5,2 kts (2 Bft) 100,00 %
21.04.2019 01:16 8,1 C 60 % 1024,9 hPa 0,0 l/m 3,4 kts (2 Bft) N 5 0 min 0,0 UV-I 0 W/m 0,8 C 8,1 C 4,3 kts (2 Bft) 100,00 %
21.04.2019 01:15 8,1 C 60 % 1024,9 hPa 0,0 l/m 3,4 kts (2 Bft) N 5 0 min 0,0 UV-I 0 W/m 0,8 C 8,1 C 4,3 kts (2 Bft) 100,00 %
21.04.2019 01:14 8,3 C 60 % 1024,9 hPa 0,0 l/m 3,9 kts (2 Bft) N 5 0 min 0,0 UV-I 0 W/m 1,0 C 7,7 C 4,3 kts (2 Bft) 100,00 %
21.04.2019 01:13 8,3 C 60 % 1024,9 hPa 0,0 l/m 4,3 kts (2 Bft) N 5 0 min 0,0 UV-I 0 W/m 1,0 C 7,1 C 5,2 kts (2 Bft) 100,00 %
21.04.2019 01:12 8,3 C 59 % 1025,0 hPa 0,0 l/m 4,4 kts (2 Bft) N 5 0 min 0,0 UV-I 0 W/m 0,8 C 6,9 C 5,2 kts (2 Bft) 100,00 %
21.04.2019 01:11 8,2 C 60 % 1024,9 hPa 0,0 l/m 3,7 kts (2 Bft) N 5 0 min 0,0 UV-I 0 W/m 0,9 C 7,9 C 4,3 kts (2 Bft) 100,00 %
21.04.2019 01:10 8,2 C 59 % 1024,9 hPa 0,0 l/m 4,0 kts (2 Bft) N 5 0 min 0,0 UV-I 0 W/m 0,7 C 7,4 C 4,3 kts (2 Bft) 100,00 %
21.04.2019 01:09 8,2 C 59 % 1025,0 hPa 0,0 l/m 4,4 kts (2 Bft) N 5 0 min 0,0 UV-I 0 W/m 0,7 C 6,8 C 5,2 kts (2 Bft) 100,00 %
21.04.2019 01:08 8,3 C 59 % 1024,9 hPa 0,0 l/m 4,5 kts (2 Bft) N 5 0 min 0,0 UV-I 0 W/m 0,8 C 6,9 C 5,2 kts (2 Bft) 100,00 %
21.04.2019 01:07 8,3 C 59 % 1024,9 hPa 0,0 l/m 3,9 kts (2 Bft) N 5 0 min 0,0 UV-I 0 W/m 0,8 C 7,7 C 4,3 kts (2 Bft) 100,00 %
21.04.2019 01:06 8,4 C 59 % 1024,9 hPa 0,0 l/m 4,4 kts (2 Bft) N 5 0 min 0,0 UV-I 0 W/m 0,9 C 7,0 C 5,2 kts (2 Bft) 100,00 %
21.04.2019 01:05 8,7 C 58 % 1025,0 hPa 0,0 l/m 3,9 kts (2 Bft) N 5 0 min 0,0 UV-I 0 W/m 0,9 C 8,1 C 4,3 kts (2 Bft) 100,00 %
21.04.2019 01:04 8,8 C 57 % 1025,0 hPa 0,0 l/m 4,6 kts (2 Bft) N 5 0 min 0,0 UV-I 0 W/m 0,8 C 7,2 C 5,2 kts (2 Bft) 95,83 %
21.04.2019 01:03 8,8 C 58 % 1025,0 hPa 0,0 l/m 5,0 kts (2 Bft) N 5 0 min 0,0 UV-I 0 W/m 1,0 C 6,7 C 7,0 kts (3 Bft) 100,00 %
21.04.2019 01:02 8,7 C 58 % 1025,0 hPa 0,0 l/m 5,2 kts (2 Bft) N 5 0 min 0,0 UV-I 0 W/m 0,9 C 6,3 C 7,0 kts (3 Bft) 100,00 %
21.04.2019 01:01 8,5 C 58 % 1025,0 hPa 0,0 l/m 6,2 kts (2 Bft) N 5 0 min 0,0 UV-I 0 W/m 0,7 C 5,1 C 7,8 kts (3 Bft) 100,00 %
21.04.2019 01:00 8,4 C 60 % 1025,1 hPa 0,0 l/m 6,0 kts (2 Bft) N 5 0 min 0,0 UV-I 0 W/m 1,1 C 5,2 C 7,0 kts (3 Bft) 100,00 %
21.04.2019 00:59 8,3 C 60 % 1025,0 hPa 0,0 l/m 5,5 kts (2 Bft) N 5 0 min 0,0 UV-I 0 W/m 1,0 C 5,7 C 7,0 kts (3 Bft) 100,00 %
21.04.2019 00:58 8,2 C 61 % 1025,0 hPa 0,0 l/m 5,6 kts (2 Bft) N 5 0 min 0,0 UV-I 0 W/m 1,1 C 5,4 C 7,0 kts (3 Bft) 100,00 %
21.04.2019 00:57 8,2 C 61 % 1025,0 hPa 0,0 l/m 5,3 kts (2 Bft) N 5 0 min 0,0 UV-I 0 W/m 1,1 C 5,7 C 7,0 kts (3 Bft) 100,00 %
21.04.2019 00:56 8,2 C 61 % 1025,0 hPa 0,0 l/m 5,5 kts (2 Bft) N 5 0 min 0,0 UV-I 0 W/m 1,1 C 5,5 C 7,0 kts (3 Bft) 100,00 %
21.04.2019 00:55 8,1 C 61 % 1025,0 hPa 0,0 l/m 6,0 kts (2 Bft) N 5 0 min 0,0 UV-I 0 W/m 1,0 C 4,8 C 7,0 kts (3 Bft) 100,00 %
21.04.2019 00:54 8,1 C 60 % 1025,1 hPa 0,0 l/m 5,5 kts (2 Bft) N 5 0 min 0,0 UV-I 0 W/m 0,8 C 5,4 C 7,0 kts (3 Bft) 100,00 %
21.04.2019 00:53 8,1 C 60 % 1025,1 hPa 0,0 l/m 5,9 kts (2 Bft) N 5 0 min 0,0 UV-I 0 W/m 0,8 C 4,9 C 7,0 kts (3 Bft) 100,00 %
21.04.2019 00:52 8,3 C 60 % 1025,1 hPa 0,0 l/m 6,4 kts (2 Bft) N 5 0 min 0,0 UV-I 0 W/m 1,0 C 4,6 C 7,0 kts (3 Bft) 100,00 %
21.04.2019 00:51 8,4 C 60 % 1025,1 hPa 0,0 l/m 6,3 kts (2 Bft) N 5 0 min 0,0 UV-I 0 W/m 1,1 C 4,9 C 7,8 kts (3 Bft) 100,00 %
21.04.2019 00:50 8,6 C 59 % 1025,1 hPa 0,0 l/m 6,6 kts (3 Bft) N 5 0 min 0,0 UV-I 0 W/m 1,0 C 4,7 C 7,8 kts (3 Bft) 100,00 %
21.04.2019 00:49 8,5 C 59 % 1025,1 hPa 0,0 l/m 6,6 kts (2 Bft) N 5 0 min 0,0 UV-I 0 W/m 1,0 C 4,7 C 7,8 kts (3 Bft) 96,15 %
21.04.2019 00:48 8,4 C 58 % 1025,1 hPa 0,0 l/m 7,2 kts (3 Bft) N 5 0 min 0,0 UV-I 0 W/m 0,6 C 4,0 C 8,7 kts (3 Bft) 100,00 %
21.04.2019 00:47 8,5 C 59 % 1025,1 hPa 0,0 l/m 7,4 kts (3 Bft) N 5 0 min 0,0 UV-I 0 W/m 1,0 C 3,9 C 8,7 kts (3 Bft) 100,00 %
21.04.2019 00:46 8,5 C 58 % 1025,1 hPa 0,0 l/m 6,8 kts (3 Bft) N 5 0 min 0,0 UV-I 0 W/m 0,7 C 4,5 C 7,8 kts (3 Bft) 100,00 %
21.04.2019 00:45 8,5 C 59 % 1025,1 hPa 0,0 l/m 6,7 kts (3 Bft) N 5 0 min 0,0 UV-I 0 W/m 1,0 C 4,5 C 7,8 kts (3 Bft) 100,00 %
21.04.2019 00:44 8,4 C 59 % 1025,1 hPa 0,0 l/m 6,3 kts (2 Bft) N 5 0 min 0,0 UV-I 0 W/m 0,9 C 4,8 C 7,8 kts (3 Bft) 100,00 %
21.04.2019 00:43 8,3 C 59 % 1025,0 hPa 0,0 l/m 6,5 kts (2 Bft) N 5 0 min 0,0 UV-I 0 W/m 0,8 C 4,6 C 7,8 kts (3 Bft) 100,00 %
21.04.2019 00:42 8,2 C 61 % 1025,0 hPa 0,0 l/m 6,1 kts (2 Bft) N 5 0 min 0,0 UV-I 0 W/m 1,1 C 4,8 C 7,0 kts (3 Bft) 100,00 %
21.04.2019 00:41 8,1 C 61 % 1025,0 hPa 0,0 l/m 6,7 kts (3 Bft) N 5 0 min 0,0 UV-I 0 W/m 1,0 C 4,1 C 7,8 kts (3 Bft) 100,00 %
21.04.2019 00:40 8,1 C 61 % 1025,0 hPa 0,0 l/m 5,8 kts (2 Bft) N 5 0 min 0,0 UV-I 0 W/m 1,0 C 5,1 C 7,0 kts (3 Bft) 100,00 %
21.04.2019 00:39 8,1 C 61 % 1025,0 hPa 0,0 l/m 6,0 kts (2 Bft) N 5 0 min 0,0 UV-I 0 W/m 1,0 C 4,8 C 7,0 kts (3 Bft) 100,00 %
21.04.2019 00:38 7,9 C 61 % 1025,1 hPa 0,0 l/m 5,5 kts (2 Bft) N 5 0 min 0,0 UV-I 0 W/m 0,9 C 5,1 C 7,0 kts (3 Bft) 100,00 %
21.04.2019 00:37 7,9 C 61 % 1025,0 hPa 0,0 l/m 6,0 kts (2 Bft) N 5 0 min 0,0 UV-I 0 W/m 0,9 C 4,6 C 7,0 kts (3 Bft) 100,00 %
21.04.2019 00:36 7,8 C 61 % 1025,0 hPa 0,0 l/m 5,3 kts (2 Bft) N 360 0 min 0,0 UV-I 0 W/m 0,8 C 5,2 C 7,0 kts (3 Bft) 96,15 %
21.04.2019 00:35 7,9 C 60 % 1025,1 hPa 0,0 l/m 4,7 kts (2 Bft) N 360 0 min 0,0 UV-I 0 W/m 0,6 C 6,1 C 5,2 kts (2 Bft) 100,00 %
21.04.2019 00:34 8,0 C 60 % 1025,1 hPa 0,0 l/m 5,0 kts (2 Bft) N 360 0 min 0,0 UV-I 0 W/m 0,7 C 5,9 C 5,2 kts (2 Bft) 100,00 %
21.04.2019 00:33 8,2 C 60 % 1025,1 hPa 0,0 l/m 5,1 kts (2 Bft) NW 326 0 min 0,0 UV-I 0 W/m 0,9 C 6,0 C 7,0 kts (3 Bft) 100,00 %
21.04.2019 00:32 8,3 C 60 % 1025,1 hPa 0,0 l/m 5,1 kts (2 Bft) N-NW 327 0 min 0,0 UV-I 0 W/m 1,0 C 6,0 C 7,0 kts (3 Bft) 100,00 %
21.04.2019 00:31 8,3 C 59 % 1025,0 hPa 0,0 l/m 4,9 kts (2 Bft) N-NW 327 0 min 0,0 UV-I 0 W/m 0,8 C 6,3 C 5,2 kts (2 Bft) 100,00 %
21.04.2019 00:30 8,4 C 58 % 1025,0 hPa 0,0 l/m 5,2 kts (2 Bft) N-NW 327 0 min 0,0 UV-I 0 W/m 0,6 C 6,1 C 7,0 kts (3 Bft) 100,00 %
21.04.2019 00:29 8,4 C 59 % 1025,0 hPa 0,0 l/m 5,1 kts (2 Bft) N-NW 327 0 min 0,0 UV-I 0 W/m 0,9 C 6,1 C 7,0 kts (3 Bft) 90,91 %
21.04.2019 00:28 8,3 C 58 % 1025,0 hPa 0,0 l/m 4,6 kts (2 Bft) N-NW 327 0 min 0,0 UV-I 0 W/m 0,5 C 6,7 C 5,2 kts (2 Bft) 100,00 %
21.04.2019 00:27 8,3 C 59 % 1025,0 hPa 0,0 l/m 4,3 kts (2 Bft) N-NW 327 0 min 0,0 UV-I 0 W/m 0,8 C 7,1 C 5,2 kts (2 Bft) 100,00 %
21.04.2019 00:26 8,3 C 59 % 1025,0 hPa 0,0 l/m 4,6 kts (2 Bft) N-NW 327 0 min 0,0 UV-I 0 W/m 0,8 C 6,6 C 5,2 kts (2 Bft) 100,00 %
21.04.2019 00:25 8,3 C 59 % 1025,0 hPa 0,0 l/m 4,6 kts (2 Bft) N-NW 327 0 min 0,0 UV-I 0 W/m 0,8 C 6,6 C 5,2 kts (2 Bft) 100,00 %
21.04.2019 00:24 8,3 C 59 % 1025,0 hPa 0,0 l/m 4,0 kts (2 Bft) N-NW 327 0 min 0,0 UV-I 0 W/m 0,8 C 7,5 C 4,3 kts (2 Bft) 100,00 %
21.04.2019 00:23 8,3 C 59 % 1025,0 hPa 0,0 l/m 4,3 kts (2 Bft) N 360 0 min 0,0 UV-I 0 W/m 0,8 C 7,1 C 5,2 kts (2 Bft) 100,00 %
21.04.2019 00:22 8,3 C 59 % 1025,0 hPa 0,0 l/m 4,2 kts (2 Bft) N 360 0 min 0,0 UV-I 0 W/m 0,8 C 7,3 C 5,2 kts (2 Bft) 100,00 %
21.04.2019 00:21 8,3 C 59 % 1025,1 hPa 0,0 l/m 3,7 kts (2 Bft) N 360 0 min 0,0 UV-I 0 W/m 0,8 C 7,9 C 4,3 kts (2 Bft) 100,00 %
21.04.2019 00:20 8,3 C 59 % 1025,1 hPa 0,0 l/m 3,6 kts (2 Bft) N 360 0 min 0,0 UV-I 0 W/m 0,8 C 8,2 C 4,3 kts (2 Bft) 100,00 %
21.04.2019 00:19 8,3 C 60 % 1025,0 hPa 0,0 l/m 3,7 kts (2 Bft) N 360 0 min 0,0 UV-I 0 W/m 1,0 C 8,0 C 4,3 kts (2 Bft) 100,00 %
21.04.2019 00:18 8,3 C 59 % 1025,0 hPa 0,0 l/m 3,6 kts (2 Bft) N 360 0 min 0,0 UV-I 0 W/m 0,8 C 8,2 C 4,3 kts (2 Bft) 100,00 %
21.04.2019 00:17 8,2 C 60 % 1025,0 hPa 0,0 l/m 3,3 kts (2 Bft) N 360 0 min 0,0 UV-I 0 W/m 0,9 C 8,2 C 3,5 kts (2 Bft) 100,00 %
21.04.2019 00:16 8,2 C 60 % 1025,0 hPa 0,0 l/m 3,5 kts (2 Bft) N 360 0 min 0,0 UV-I 0 W/m 0,9 C 8,2 C 4,3 kts (2 Bft) 100,00 %
21.04.2019 00:15 8,2 C 60 % 1025,1 hPa 0,0 l/m 3,2 kts (2 Bft) N 360 0 min 0,0 UV-I 0 W/m 0,9 C 8,2 C 4,3 kts (2 Bft) 100,00 %
21.04.2019 00:14 8,2 C 61 % 1025,1 hPa 0,0 l/m 3,1 kts (1 Bft) N 360 0 min 0,0 UV-I 0 W/m 1,1 C 8,2 C 3,5 kts (2 Bft) 100,00 %
21.04.2019 00:13 8,2 C 61 % 1025,1 hPa 0,0 l/m 3,0 kts (1 Bft) N 360 0 min 0,0 UV-I 0 W/m 1,1 C 8,2 C 3,5 kts (2 Bft) 100,00 %
21.04.2019 00:12 8,2 C 61 % 1025,1 hPa 0,0 l/m 3,2 kts (2 Bft) N 360 0 min 0,0 UV-I 0 W/m 1,1 C 8,2 C 3,5 kts (2 Bft) 100,00 %
21.04.2019 00:11 8,2 C 61 % 1025,1 hPa 0,0 l/m 3,2 kts (2 Bft) N 360 0 min 0,0 UV-I 0 W/m 1,1 C 8,2 C 4,3 kts (2 Bft) 100,00 %
21.04.2019 00:10 8,2 C 61 % 1025,1 hPa 0,0 l/m 3,7 kts (2 Bft) N 360 0 min 0,0 UV-I 0 W/m 1,1 C 7,9 C 4,3 kts (2 Bft) 100,00 %
21.04.2019 00:09 8,1 C 62 % 1025,1 hPa 0,0 l/m 3,2 kts (2 Bft) N 360 0 min 0,0 UV-I 0 W/m 1,3 C 8,1 C 3,5 kts (2 Bft) 100,00 %
21.04.2019 00:08 8,0 C 62 % 1025,1 hPa 0,0 l/m 3,1 kts (2 Bft) N 360 0 min 0,0 UV-I 0 W/m 1,2 C 8,0 C 3,5 kts (2 Bft) 100,00 %
21.04.2019 00:07 7,9 C 62 % 1025,1 hPa 0,0 l/m 3,1 kts (1 Bft) N 360 0 min 0,0 UV-I 0 W/m 1,1 C 7,9 C 3,5 kts (2 Bft) 100,00 %
21.04.2019 00:06 7,9 C 62 % 1025,1 hPa 0,0 l/m 3,3 kts (2 Bft) N 360 0 min 0,0 UV-I 0 W/m 1,1 C 7,9 C 3,5 kts (2 Bft) 100,00 %
21.04.2019 00:05 7,9 C 62 % 1025,1 hPa 0,0 l/m 3,9 kts (2 Bft) N 360 0 min 0,0 UV-I 0 W/m 1,1 C 7,3 C 4,3 kts (2 Bft) 100,00 %
21.04.2019 00:04 7,9 C 62 % 1025,2 hPa 0,0 l/m 4,1 kts (2 Bft) N 360 0 min 0,0 UV-I 0 W/m 1,1 C 7,0 C 4,3 kts (2 Bft) 100,00 %
21.04.2019 00:03 7,9 C 62 % 1025,1 hPa 0,0 l/m 4,4 kts (2 Bft) N 360 0 min 0,0 UV-I 0 W/m 1,1 C 6,5 C 5,2 kts (2 Bft) 100,00 %
21.04.2019 00:02 8,0 C 61 % 1025,1 hPa 0,0 l/m 5,2 kts (2 Bft) N 360 0 min 0,0 UV-I 0 W/m 0,9 C 5,6 C 5,2 kts (2 Bft) 100,00 %
21.04.2019 00:01 8,0 C 61 % 1025,1 hPa 0,0 l/m 5,2 kts (2 Bft) N 360 0 min 0,0 UV-I 0 W/m 0,9 C 5,6 C 5,2 kts (2 Bft) 100,00 %
21.04.2019 00:00 7,9 C 61 % 1025,1 hPa 0,0 l/m 5,5 kts (2 Bft) N 360 0 min 0,0 UV-I 0 W/m 0,9 C 5,1 C 7,0 kts (3 Bft) 100,00 %
_ Min-Zeit 06:01 12:38 12:34 - 07:29 - - - - - 05:50 05:58 07:29 00:29
Minimum _ 3,9 C 39 % 1022,0 hPa - 0,1 kts (0 Bft) - - - - - -0,4 C 3,6 C 0,9 kts (1 Bft) 90,91 %
_ Max-Zeit 12:39 06:00 00:04 00:00 12:39 - - 07:45 12:30 12:32 12:01 12:31 12:37 00:00
Maximum _ 18,2 C 74 % 1025,2 hPa 0,0 l/m 9,1 kts
N-NO (3 Bft)
- - 1 min 4,3 UV-I 758 W/m 7,4 C 17,8 C 11,3 kts
N (4 Bft)
100,00 %
Durchschnitt _ 9,7 C 60 % 1023,8 hPa #0,0 l/m 3,1 kts (2 Bft) N-NO - #4:55 h 2,5 UV-I 406 W/m 2,0 C 9,3 C 4,1 kts (2 Bft) 98,94 %